<?xml version="1.0" encoding="UTF-8" standalone="no" ?>
<gpx xmlns="http://www.topografix.com/GPX/1/1" xmlns:xsi="http://www.w3.org/2001/XMLSchema-instance" xsi:schemaLocation="http://www.topografix.com/GPX/1/1 http://www.topografix.com/GPX/1/1/gpx.xsd" version="1.1" creator="VisuGPX - https://www.visugpx.com">
  <metadata>
    <name>RSPFY-Poteau-des-Bruyères</name>
    <desc><![CDATA[boucle de marche nordique au départ du poteau des Bruyères passant par le poteau de la Poterie, le carrefour Sainte-Anne, le carrefour de la Claye et le poteau Sainte-Scariberge.]]></desc>
  </metadata>
  <trk>
    <name><![CDATA[2022-05-12 09:08]]></name>
    <desc><![CDATA[<p>Heure de départ: 09:08 12 mai 2022<br/>Heure d'arrivée: 11:45 12 mai 2022<br/>Distance: 12,7 km (02:37)<br/>Temps déplacement: 02:19<br/>Vitesse moyenne: 4,83 km/h<br/>Vitesse moyenne mouv.: 5,46 km/h<br/>Vitesse Max.: 7,99 km/h<br/>Altitude minimale: 115 m<br/>Altitude maximale: 190 m<br/>Vitesse de montée: 333 m/h<br/>Vitesse de descente: -297,4 m/h<br/>Gain d'altitude: 408 m<br/>Perte d'altitude: -401 m<br/>Temps de montée: 01:13<br/>Temps de descente: 01:21<br/></p><hr align="center" width="480" style="height: 2px; width: 517px"/>]]></desc>
    <trkseg>
      <trkpt lat="48.61658" lon="1.92961">
        <ele>172.4</ele>
        <time>2022-05-12T07:08:24Z</time>
      </trkpt>
      <trkpt lat="48.61657" lon="1.92974">
        <ele>172</ele>
        <time>2022-05-12T07:09:04Z</time>
      </trkpt>
      <trkpt lat="48.61655" lon="1.92988">
        <ele>172</ele>
        <time>2022-05-12T07:09:17Z</time>
      </trkpt>
      <trkpt lat="48.61652" lon="1.93003">
        <ele>172</ele>
        <time>2022-05-12T07:09:30Z</time>
      </trkpt>
      <trkpt lat="48.61653" lon="1.93017">
        <ele>172</ele>
        <time>2022-05-12T07:09:38Z</time>
      </trkpt>
      <trkpt lat="48.61653" lon="1.93032">
        <ele>172</ele>
        <time>2022-05-12T07:09:46Z</time>
      </trkpt>
      <trkpt lat="48.61654" lon="1.93046">
        <ele>172</ele>
        <time>2022-05-12T07:09:54Z</time>
      </trkpt>
      <trkpt lat="48.61657" lon="1.9306">
        <ele>172</ele>
        <time>2022-05-12T07:10:01Z</time>
      </trkpt>
      <trkpt lat="48.61658" lon="1.93074">
        <ele>172</ele>
        <time>2022-05-12T07:10:07Z</time>
      </trkpt>
      <trkpt lat="48.6166" lon="1.93089">
        <ele>172</ele>
        <time>2022-05-12T07:10:14Z</time>
      </trkpt>
      <trkpt lat="48.61661" lon="1.93104">
        <ele>172</ele>
        <time>2022-05-12T07:10:21Z</time>
      </trkpt>
      <trkpt lat="48.61663" lon="1.93117">
        <ele>171.8</ele>
        <time>2022-05-12T07:10:26Z</time>
      </trkpt>
      <trkpt lat="48.61663" lon="1.93132">
        <ele>171.3</ele>
        <time>2022-05-12T07:10:33Z</time>
      </trkpt>
      <trkpt lat="48.61663" lon="1.93148">
        <ele>171.1</ele>
        <time>2022-05-12T07:10:39Z</time>
      </trkpt>
      <trkpt lat="48.61665" lon="1.93162">
        <ele>171.1</ele>
        <time>2022-05-12T07:10:45Z</time>
      </trkpt>
      <trkpt lat="48.61665" lon="1.93176">
        <ele>171</ele>
        <time>2022-05-12T07:10:53Z</time>
      </trkpt>
      <trkpt lat="48.61666" lon="1.93191">
        <ele>171</ele>
        <time>2022-05-12T07:11:00Z</time>
      </trkpt>
      <trkpt lat="48.61667" lon="1.93206">
        <ele>171</ele>
        <time>2022-05-12T07:11:06Z</time>
      </trkpt>
      <trkpt lat="48.61668" lon="1.9322">
        <ele>171</ele>
        <time>2022-05-12T07:11:11Z</time>
      </trkpt>
      <trkpt lat="48.6167" lon="1.93235">
        <ele>171</ele>
        <time>2022-05-12T07:11:17Z</time>
      </trkpt>
      <trkpt lat="48.61669" lon="1.93251">
        <ele>171</ele>
        <time>2022-05-12T07:11:24Z</time>
      </trkpt>
      <trkpt lat="48.61669" lon="1.93265">
        <ele>170.5</ele>
        <time>2022-05-12T07:11:29Z</time>
      </trkpt>
      <trkpt lat="48.6167" lon="1.93281">
        <ele>170</ele>
        <time>2022-05-12T07:11:35Z</time>
      </trkpt>
      <trkpt lat="48.61672" lon="1.93295">
        <ele>170</ele>
        <time>2022-05-12T07:11:40Z</time>
      </trkpt>
      <trkpt lat="48.61671" lon="1.9331">
        <ele>170</ele>
        <time>2022-05-12T07:11:46Z</time>
      </trkpt>
      <trkpt lat="48.6167" lon="1.93326">
        <ele>170</ele>
        <time>2022-05-12T07:11:52Z</time>
      </trkpt>
      <trkpt lat="48.6167" lon="1.9334">
        <ele>169.8</ele>
        <time>2022-05-12T07:11:58Z</time>
      </trkpt>
      <trkpt lat="48.6167" lon="1.93354">
        <ele>169.3</ele>
        <time>2022-05-12T07:12:04Z</time>
      </trkpt>
      <trkpt lat="48.61666" lon="1.93369">
        <ele>169</ele>
        <time>2022-05-12T07:12:12Z</time>
      </trkpt>
      <trkpt lat="48.61666" lon="1.93383">
        <ele>169</ele>
        <time>2022-05-12T07:12:18Z</time>
      </trkpt>
      <trkpt lat="48.61666" lon="1.93398">
        <ele>169</ele>
        <time>2022-05-12T07:12:26Z</time>
      </trkpt>
      <trkpt lat="48.61665" lon="1.93411">
        <ele>169</ele>
        <time>2022-05-12T07:12:34Z</time>
      </trkpt>
      <trkpt lat="48.61664" lon="1.93425">
        <ele>168.9</ele>
        <time>2022-05-12T07:12:41Z</time>
      </trkpt>
      <trkpt lat="48.6166" lon="1.93437">
        <ele>168.8</ele>
        <time>2022-05-12T07:12:47Z</time>
      </trkpt>
      <trkpt lat="48.61657" lon="1.93454">
        <ele>168.4</ele>
        <time>2022-05-12T07:12:53Z</time>
      </trkpt>
      <trkpt lat="48.61656" lon="1.93467">
        <ele>168.1</ele>
        <time>2022-05-12T07:12:58Z</time>
      </trkpt>
      <trkpt lat="48.61654" lon="1.9348">
        <ele>167.9</ele>
        <time>2022-05-12T07:13:04Z</time>
      </trkpt>
      <trkpt lat="48.6165" lon="1.93494">
        <ele>167.5</ele>
        <time>2022-05-12T07:13:12Z</time>
      </trkpt>
      <trkpt lat="48.61647" lon="1.93508">
        <ele>167.3</ele>
        <time>2022-05-12T07:13:20Z</time>
      </trkpt>
      <trkpt lat="48.61645" lon="1.93523">
        <ele>167.2</ele>
        <time>2022-05-12T07:13:28Z</time>
      </trkpt>
      <trkpt lat="48.61644" lon="1.93537">
        <ele>167.2</ele>
        <time>2022-05-12T07:13:33Z</time>
      </trkpt>
      <trkpt lat="48.61641" lon="1.93551">
        <ele>167.1</ele>
        <time>2022-05-12T07:13:38Z</time>
      </trkpt>
      <trkpt lat="48.61639" lon="1.93565">
        <ele>167</ele>
        <time>2022-05-12T07:13:43Z</time>
      </trkpt>
      <trkpt lat="48.61638" lon="1.93581">
        <ele>167</ele>
        <time>2022-05-12T07:13:49Z</time>
      </trkpt>
      <trkpt lat="48.61635" lon="1.93595">
        <ele>166.8</ele>
        <time>2022-05-12T07:13:55Z</time>
      </trkpt>
      <trkpt lat="48.61632" lon="1.9361">
        <ele>166.7</ele>
        <time>2022-05-12T07:14:01Z</time>
      </trkpt>
      <trkpt lat="48.61625" lon="1.93622">
        <ele>166.5</ele>
        <time>2022-05-12T07:14:08Z</time>
      </trkpt>
      <trkpt lat="48.61622" lon="1.93637">
        <ele>166.4</ele>
        <time>2022-05-12T07:14:14Z</time>
      </trkpt>
      <trkpt lat="48.61619" lon="1.9365">
        <ele>166.3</ele>
        <time>2022-05-12T07:14:22Z</time>
      </trkpt>
      <trkpt lat="48.61614" lon="1.93664">
        <ele>166.1</ele>
        <time>2022-05-12T07:14:29Z</time>
      </trkpt>
      <trkpt lat="48.6161" lon="1.93677">
        <ele>165.9</ele>
        <time>2022-05-12T07:14:36Z</time>
      </trkpt>
      <trkpt lat="48.61607" lon="1.93691">
        <ele>165.8</ele>
        <time>2022-05-12T07:14:42Z</time>
      </trkpt>
      <trkpt lat="48.61603" lon="1.93703">
        <ele>165.7</ele>
        <time>2022-05-12T07:14:48Z</time>
      </trkpt>
      <trkpt lat="48.61594" lon="1.93708">
        <ele>165.4</ele>
        <time>2022-05-12T07:15:00Z</time>
      </trkpt>
      <trkpt lat="48.61585" lon="1.93705">
        <ele>165</ele>
        <time>2022-05-12T07:15:10Z</time>
      </trkpt>
      <trkpt lat="48.61577" lon="1.93697">
        <ele>164.2</ele>
        <time>2022-05-12T07:15:18Z</time>
      </trkpt>
      <trkpt lat="48.6157" lon="1.93688">
        <ele>162.9</ele>
        <time>2022-05-12T07:15:27Z</time>
      </trkpt>
      <trkpt lat="48.61564" lon="1.93678">
        <ele>161.6</ele>
        <time>2022-05-12T07:15:35Z</time>
      </trkpt>
      <trkpt lat="48.61559" lon="1.93666">
        <ele>160.4</ele>
        <time>2022-05-12T07:15:45Z</time>
      </trkpt>
      <trkpt lat="48.61553" lon="1.93654">
        <ele>158.5</ele>
        <time>2022-05-12T07:15:54Z</time>
      </trkpt>
      <trkpt lat="48.61544" lon="1.93647">
        <ele>155.8</ele>
        <time>2022-05-12T07:16:02Z</time>
      </trkpt>
      <trkpt lat="48.61537" lon="1.93635">
        <ele>153.3</ele>
        <time>2022-05-12T07:16:11Z</time>
      </trkpt>
      <trkpt lat="48.61529" lon="1.9363">
        <ele>151</ele>
        <time>2022-05-12T07:16:18Z</time>
      </trkpt>
      <trkpt lat="48.61522" lon="1.93622">
        <ele>149.1</ele>
        <time>2022-05-12T07:16:25Z</time>
      </trkpt>
      <trkpt lat="48.61515" lon="1.93611">
        <ele>147.1</ele>
        <time>2022-05-12T07:16:34Z</time>
      </trkpt>
      <trkpt lat="48.61508" lon="1.93601">
        <ele>146.2</ele>
        <time>2022-05-12T07:16:41Z</time>
      </trkpt>
      <trkpt lat="48.61498" lon="1.93596">
        <ele>144.9</ele>
        <time>2022-05-12T07:16:48Z</time>
      </trkpt>
      <trkpt lat="48.61489" lon="1.93592">
        <ele>144.3</ele>
        <time>2022-05-12T07:16:54Z</time>
      </trkpt>
      <trkpt lat="48.6148" lon="1.93585">
        <ele>143.8</ele>
        <time>2022-05-12T07:17:01Z</time>
      </trkpt>
      <trkpt lat="48.61471" lon="1.93579">
        <ele>143.4</ele>
        <time>2022-05-12T07:17:09Z</time>
      </trkpt>
      <trkpt lat="48.61465" lon="1.93568">
        <ele>144</ele>
        <time>2022-05-12T07:17:16Z</time>
      </trkpt>
      <trkpt lat="48.61458" lon="1.93559">
        <ele>144.2</ele>
        <time>2022-05-12T07:17:23Z</time>
      </trkpt>
      <trkpt lat="48.61451" lon="1.93548">
        <ele>144.3</ele>
        <time>2022-05-12T07:17:31Z</time>
      </trkpt>
      <trkpt lat="48.61443" lon="1.93538">
        <ele>144.1</ele>
        <time>2022-05-12T07:17:38Z</time>
      </trkpt>
      <trkpt lat="48.61437" lon="1.93528">
        <ele>144.2</ele>
        <time>2022-05-12T07:17:45Z</time>
      </trkpt>
      <trkpt lat="48.61429" lon="1.9352">
        <ele>144.1</ele>
        <time>2022-05-12T07:17:52Z</time>
      </trkpt>
      <trkpt lat="48.61422" lon="1.93512">
        <ele>143.9</ele>
        <time>2022-05-12T07:17:58Z</time>
      </trkpt>
      <trkpt lat="48.61416" lon="1.935">
        <ele>143.9</ele>
        <time>2022-05-12T07:18:04Z</time>
      </trkpt>
      <trkpt lat="48.61409" lon="1.9349">
        <ele>143.8</ele>
        <time>2022-05-12T07:18:10Z</time>
      </trkpt>
      <trkpt lat="48.61403" lon="1.93479">
        <ele>143.7</ele>
        <time>2022-05-12T07:18:17Z</time>
      </trkpt>
      <trkpt lat="48.61396" lon="1.93471">
        <ele>143</ele>
        <time>2022-05-12T07:18:23Z</time>
      </trkpt>
      <trkpt lat="48.61387" lon="1.93464">
        <ele>142.4</ele>
        <time>2022-05-12T07:18:29Z</time>
      </trkpt>
      <trkpt lat="48.61379" lon="1.93456">
        <ele>141.9</ele>
        <time>2022-05-12T07:18:35Z</time>
      </trkpt>
      <trkpt lat="48.61372" lon="1.93447">
        <ele>141.4</ele>
        <time>2022-05-12T07:18:42Z</time>
      </trkpt>
      <trkpt lat="48.61371" lon="1.93433">
        <ele>141.5</ele>
        <time>2022-05-12T07:18:50Z</time>
      </trkpt>
      <trkpt lat="48.61362" lon="1.93425">
        <ele>140.1</ele>
        <time>2022-05-12T07:18:56Z</time>
      </trkpt>
      <trkpt lat="48.61354" lon="1.93415">
        <ele>139.2</ele>
        <time>2022-05-12T07:19:04Z</time>
      </trkpt>
      <trkpt lat="48.61345" lon="1.9341">
        <ele>138.2</ele>
        <time>2022-05-12T07:19:11Z</time>
      </trkpt>
      <trkpt lat="48.61336" lon="1.93411">
        <ele>137.3</ele>
        <time>2022-05-12T07:19:21Z</time>
      </trkpt>
      <trkpt lat="48.61327" lon="1.9341">
        <ele>136.6</ele>
        <time>2022-05-12T07:20:10Z</time>
      </trkpt>
      <trkpt lat="48.61319" lon="1.934">
        <ele>136.3</ele>
        <time>2022-05-12T07:20:19Z</time>
      </trkpt>
      <trkpt lat="48.61313" lon="1.9339">
        <ele>136.2</ele>
        <time>2022-05-12T07:20:25Z</time>
      </trkpt>
      <trkpt lat="48.61306" lon="1.9338">
        <ele>136.3</ele>
        <time>2022-05-12T07:20:33Z</time>
      </trkpt>
      <trkpt lat="48.61298" lon="1.93372">
        <ele>136.3</ele>
        <time>2022-05-12T07:20:39Z</time>
      </trkpt>
      <trkpt lat="48.6129" lon="1.93364">
        <ele>136.3</ele>
        <time>2022-05-12T07:20:45Z</time>
      </trkpt>
      <trkpt lat="48.61282" lon="1.93356">
        <ele>136.3</ele>
        <time>2022-05-12T07:20:51Z</time>
      </trkpt>
      <trkpt lat="48.61273" lon="1.93348">
        <ele>136.3</ele>
        <time>2022-05-12T07:20:57Z</time>
      </trkpt>
      <trkpt lat="48.61267" lon="1.93338">
        <ele>136.4</ele>
        <time>2022-05-12T07:21:03Z</time>
      </trkpt>
      <trkpt lat="48.6126" lon="1.93328">
        <ele>136.4</ele>
        <time>2022-05-12T07:21:10Z</time>
      </trkpt>
      <trkpt lat="48.61252" lon="1.9332">
        <ele>136.1</ele>
        <time>2022-05-12T07:21:18Z</time>
      </trkpt>
      <trkpt lat="48.61245" lon="1.93311">
        <ele>135.4</ele>
        <time>2022-05-12T07:21:24Z</time>
      </trkpt>
      <trkpt lat="48.61237" lon="1.93302">
        <ele>134.6</ele>
        <time>2022-05-12T07:21:32Z</time>
      </trkpt>
      <trkpt lat="48.61228" lon="1.93298">
        <ele>133.8</ele>
        <time>2022-05-12T07:21:41Z</time>
      </trkpt>
      <trkpt lat="48.61217" lon="1.93298">
        <ele>133.2</ele>
        <time>2022-05-12T07:21:48Z</time>
      </trkpt>
      <trkpt lat="48.61208" lon="1.93298">
        <ele>133</ele>
        <time>2022-05-12T07:21:53Z</time>
      </trkpt>
      <trkpt lat="48.61198" lon="1.933">
        <ele>132.6</ele>
        <time>2022-05-12T07:21:59Z</time>
      </trkpt>
      <trkpt lat="48.61188" lon="1.93303">
        <ele>132.3</ele>
        <time>2022-05-12T07:22:04Z</time>
      </trkpt>
      <trkpt lat="48.61179" lon="1.93307">
        <ele>131.9</ele>
        <time>2022-05-12T07:22:12Z</time>
      </trkpt>
      <trkpt lat="48.6117" lon="1.93308">
        <ele>131.7</ele>
        <time>2022-05-12T07:22:22Z</time>
      </trkpt>
      <trkpt lat="48.6116" lon="1.93308">
        <ele>131.8</ele>
        <time>2022-05-12T07:22:31Z</time>
      </trkpt>
      <trkpt lat="48.61151" lon="1.93311">
        <ele>131.6</ele>
        <time>2022-05-12T07:22:38Z</time>
      </trkpt>
      <trkpt lat="48.61141" lon="1.93314">
        <ele>131.3</ele>
        <time>2022-05-12T07:22:45Z</time>
      </trkpt>
      <trkpt lat="48.61133" lon="1.93319">
        <ele>131.9</ele>
        <time>2022-05-12T07:22:51Z</time>
      </trkpt>
      <trkpt lat="48.61122" lon="1.93321">
        <ele>133.2</ele>
        <time>2022-05-12T07:22:58Z</time>
      </trkpt>
      <trkpt lat="48.61114" lon="1.93326">
        <ele>134.1</ele>
        <time>2022-05-12T07:23:06Z</time>
      </trkpt>
      <trkpt lat="48.61105" lon="1.93328">
        <ele>135.3</ele>
        <time>2022-05-12T07:23:13Z</time>
      </trkpt>
      <trkpt lat="48.61095" lon="1.93329">
        <ele>136.6</ele>
        <time>2022-05-12T07:23:19Z</time>
      </trkpt>
      <trkpt lat="48.61087" lon="1.93332">
        <ele>137.6</ele>
        <time>2022-05-12T07:23:25Z</time>
      </trkpt>
      <trkpt lat="48.61078" lon="1.93339">
        <ele>137.6</ele>
        <time>2022-05-12T07:23:30Z</time>
      </trkpt>
      <trkpt lat="48.6107" lon="1.93349">
        <ele>136.9</ele>
        <time>2022-05-12T07:23:36Z</time>
      </trkpt>
      <trkpt lat="48.61063" lon="1.93358">
        <ele>136.2</ele>
        <time>2022-05-12T07:23:42Z</time>
      </trkpt>
      <trkpt lat="48.61058" lon="1.93372">
        <ele>135.5</ele>
        <time>2022-05-12T07:23:48Z</time>
      </trkpt>
      <trkpt lat="48.61054" lon="1.93384">
        <ele>135</ele>
        <time>2022-05-12T07:23:54Z</time>
      </trkpt>
      <trkpt lat="48.61049" lon="1.93396">
        <ele>133.9</ele>
        <time>2022-05-12T07:24:00Z</time>
      </trkpt>
      <trkpt lat="48.61046" lon="1.93409">
        <ele>132.7</ele>
        <time>2022-05-12T07:24:07Z</time>
      </trkpt>
      <trkpt lat="48.61043" lon="1.93423">
        <ele>131.7</ele>
        <time>2022-05-12T07:24:14Z</time>
      </trkpt>
      <trkpt lat="48.6104" lon="1.93436">
        <ele>130.9</ele>
        <time>2022-05-12T07:24:20Z</time>
      </trkpt>
      <trkpt lat="48.61037" lon="1.93451">
        <ele>129.6</ele>
        <time>2022-05-12T07:24:27Z</time>
      </trkpt>
      <trkpt lat="48.61033" lon="1.93464">
        <ele>128.1</ele>
        <time>2022-05-12T07:24:33Z</time>
      </trkpt>
      <trkpt lat="48.6103" lon="1.93477">
        <ele>126.7</ele>
        <time>2022-05-12T07:24:39Z</time>
      </trkpt>
      <trkpt lat="48.61025" lon="1.93489">
        <ele>125.7</ele>
        <time>2022-05-12T07:24:46Z</time>
      </trkpt>
      <trkpt lat="48.61022" lon="1.93503">
        <ele>124.6</ele>
        <time>2022-05-12T07:24:54Z</time>
      </trkpt>
      <trkpt lat="48.61024" lon="1.93517">
        <ele>123.7</ele>
        <time>2022-05-12T07:25:02Z</time>
      </trkpt>
      <trkpt lat="48.61029" lon="1.93531">
        <ele>122.9</ele>
        <time>2022-05-12T07:25:11Z</time>
      </trkpt>
      <trkpt lat="48.61034" lon="1.93543">
        <ele>122.7</ele>
        <time>2022-05-12T07:25:19Z</time>
      </trkpt>
      <trkpt lat="48.61039" lon="1.93555">
        <ele>122.4</ele>
        <time>2022-05-12T07:25:25Z</time>
      </trkpt>
      <trkpt lat="48.61045" lon="1.93567">
        <ele>122.2</ele>
        <time>2022-05-12T07:25:32Z</time>
      </trkpt>
      <trkpt lat="48.6105" lon="1.93579">
        <ele>122</ele>
        <time>2022-05-12T07:25:38Z</time>
      </trkpt>
      <trkpt lat="48.61056" lon="1.93589">
        <ele>121.8</ele>
        <time>2022-05-12T07:25:44Z</time>
      </trkpt>
      <trkpt lat="48.61064" lon="1.936">
        <ele>121.4</ele>
        <time>2022-05-12T07:25:51Z</time>
      </trkpt>
      <trkpt lat="48.61071" lon="1.93609">
        <ele>121.1</ele>
        <time>2022-05-12T07:25:56Z</time>
      </trkpt>
      <trkpt lat="48.61079" lon="1.93618">
        <ele>121</ele>
        <time>2022-05-12T07:26:01Z</time>
      </trkpt>
      <trkpt lat="48.61086" lon="1.93629">
        <ele>121</ele>
        <time>2022-05-12T07:26:08Z</time>
      </trkpt>
      <trkpt lat="48.61093" lon="1.9364">
        <ele>121</ele>
        <time>2022-05-12T07:26:14Z</time>
      </trkpt>
      <trkpt lat="48.61098" lon="1.93651">
        <ele>120.8</ele>
        <time>2022-05-12T07:26:20Z</time>
      </trkpt>
      <trkpt lat="48.61106" lon="1.9366">
        <ele>120.9</ele>
        <time>2022-05-12T07:26:27Z</time>
      </trkpt>
      <trkpt lat="48.61114" lon="1.9367">
        <ele>121</ele>
        <time>2022-05-12T07:26:34Z</time>
      </trkpt>
      <trkpt lat="48.61123" lon="1.93677">
        <ele>121.1</ele>
        <time>2022-05-12T07:26:41Z</time>
      </trkpt>
      <trkpt lat="48.61131" lon="1.93685">
        <ele>121.1</ele>
        <time>2022-05-12T07:26:47Z</time>
      </trkpt>
      <trkpt lat="48.61139" lon="1.93696">
        <ele>121</ele>
        <time>2022-05-12T07:26:53Z</time>
      </trkpt>
      <trkpt lat="48.61147" lon="1.93705">
        <ele>121.9</ele>
        <time>2022-05-12T07:27:00Z</time>
      </trkpt>
      <trkpt lat="48.61155" lon="1.93715">
        <ele>122.7</ele>
        <time>2022-05-12T07:27:08Z</time>
      </trkpt>
      <trkpt lat="48.61162" lon="1.93727">
        <ele>123.5</ele>
        <time>2022-05-12T07:27:15Z</time>
      </trkpt>
      <trkpt lat="48.61169" lon="1.93735">
        <ele>124.2</ele>
        <time>2022-05-12T07:27:21Z</time>
      </trkpt>
      <trkpt lat="48.61177" lon="1.93745">
        <ele>124.8</ele>
        <time>2022-05-12T07:27:28Z</time>
      </trkpt>
      <trkpt lat="48.61186" lon="1.93753">
        <ele>125.3</ele>
        <time>2022-05-12T07:27:34Z</time>
      </trkpt>
      <trkpt lat="48.61194" lon="1.9376">
        <ele>126</ele>
        <time>2022-05-12T07:27:40Z</time>
      </trkpt>
      <trkpt lat="48.61203" lon="1.93768">
        <ele>126.6</ele>
        <time>2022-05-12T07:27:47Z</time>
      </trkpt>
      <trkpt lat="48.61211" lon="1.93776">
        <ele>127.2</ele>
        <time>2022-05-12T07:27:52Z</time>
      </trkpt>
      <trkpt lat="48.61219" lon="1.93783">
        <ele>127.8</ele>
        <time>2022-05-12T07:27:57Z</time>
      </trkpt>
      <trkpt lat="48.61228" lon="1.93791">
        <ele>128.4</ele>
        <time>2022-05-12T07:28:03Z</time>
      </trkpt>
      <trkpt lat="48.61236" lon="1.93798">
        <ele>129</ele>
        <time>2022-05-12T07:28:09Z</time>
      </trkpt>
      <trkpt lat="48.61245" lon="1.93805">
        <ele>129.6</ele>
        <time>2022-05-12T07:28:15Z</time>
      </trkpt>
      <trkpt lat="48.61253" lon="1.9381">
        <ele>130.4</ele>
        <time>2022-05-12T07:28:20Z</time>
      </trkpt>
      <trkpt lat="48.61261" lon="1.93819">
        <ele>131.3</ele>
        <time>2022-05-12T07:28:27Z</time>
      </trkpt>
      <trkpt lat="48.61268" lon="1.93828">
        <ele>132.1</ele>
        <time>2022-05-12T07:28:34Z</time>
      </trkpt>
      <trkpt lat="48.61277" lon="1.93835">
        <ele>133</ele>
        <time>2022-05-12T07:28:40Z</time>
      </trkpt>
      <trkpt lat="48.61284" lon="1.93845">
        <ele>134</ele>
        <time>2022-05-12T07:28:46Z</time>
      </trkpt>
      <trkpt lat="48.61292" lon="1.93853">
        <ele>134.9</ele>
        <time>2022-05-12T07:28:55Z</time>
      </trkpt>
      <trkpt lat="48.61302" lon="1.93859">
        <ele>135.7</ele>
        <time>2022-05-12T07:29:03Z</time>
      </trkpt>
      <trkpt lat="48.61308" lon="1.93868">
        <ele>136.7</ele>
        <time>2022-05-12T07:29:09Z</time>
      </trkpt>
      <trkpt lat="48.61314" lon="1.9388">
        <ele>137.8</ele>
        <time>2022-05-12T07:29:16Z</time>
      </trkpt>
      <trkpt lat="48.6132" lon="1.93893">
        <ele>138.9</ele>
        <time>2022-05-12T07:29:25Z</time>
      </trkpt>
      <trkpt lat="48.61328" lon="1.93902">
        <ele>140.1</ele>
        <time>2022-05-12T07:29:31Z</time>
      </trkpt>
      <trkpt lat="48.61335" lon="1.93913">
        <ele>141.9</ele>
        <time>2022-05-12T07:29:36Z</time>
      </trkpt>
      <trkpt lat="48.61341" lon="1.93924">
        <ele>144.1</ele>
        <time>2022-05-12T07:29:41Z</time>
      </trkpt>
      <trkpt lat="48.61348" lon="1.93935">
        <ele>146.8</ele>
        <time>2022-05-12T07:29:47Z</time>
      </trkpt>
      <trkpt lat="48.61357" lon="1.93942">
        <ele>149</ele>
        <time>2022-05-12T07:29:53Z</time>
      </trkpt>
      <trkpt lat="48.61364" lon="1.93949">
        <ele>151.2</ele>
        <time>2022-05-12T07:29:59Z</time>
      </trkpt>
      <trkpt lat="48.61372" lon="1.93955">
        <ele>153.6</ele>
        <time>2022-05-12T07:30:10Z</time>
      </trkpt>
      <trkpt lat="48.61379" lon="1.93965">
        <ele>156.1</ele>
        <time>2022-05-12T07:30:18Z</time>
      </trkpt>
      <trkpt lat="48.61388" lon="1.93971">
        <ele>158.7</ele>
        <time>2022-05-12T07:30:27Z</time>
      </trkpt>
      <trkpt lat="48.61395" lon="1.9398">
        <ele>160.6</ele>
        <time>2022-05-12T07:30:34Z</time>
      </trkpt>
      <trkpt lat="48.61404" lon="1.93988">
        <ele>162.2</ele>
        <time>2022-05-12T07:30:41Z</time>
      </trkpt>
      <trkpt lat="48.61413" lon="1.93992">
        <ele>163.3</ele>
        <time>2022-05-12T07:30:49Z</time>
      </trkpt>
      <trkpt lat="48.61422" lon="1.93996">
        <ele>164.1</ele>
        <time>2022-05-12T07:30:58Z</time>
      </trkpt>
      <trkpt lat="48.6143" lon="1.94004">
        <ele>164.7</ele>
        <time>2022-05-12T07:31:09Z</time>
      </trkpt>
      <trkpt lat="48.61422" lon="1.94015">
        <ele>165.1</ele>
        <time>2022-05-12T07:35:01Z</time>
      </trkpt>
      <trkpt lat="48.61415" lon="1.94024">
        <ele>165.6</ele>
        <time>2022-05-12T07:35:08Z</time>
      </trkpt>
      <trkpt lat="48.61412" lon="1.94037">
        <ele>165.5</ele>
        <time>2022-05-12T07:35:15Z</time>
      </trkpt>
      <trkpt lat="48.61408" lon="1.94051">
        <ele>165.3</ele>
        <time>2022-05-12T07:35:23Z</time>
      </trkpt>
      <trkpt lat="48.61402" lon="1.94064">
        <ele>164.8</ele>
        <time>2022-05-12T07:35:31Z</time>
      </trkpt>
      <trkpt lat="48.61396" lon="1.94075">
        <ele>164.3</ele>
        <time>2022-05-12T07:35:38Z</time>
      </trkpt>
      <trkpt lat="48.6139" lon="1.94085">
        <ele>164</ele>
        <time>2022-05-12T07:35:45Z</time>
      </trkpt>
      <trkpt lat="48.61385" lon="1.94097">
        <ele>163.1</ele>
        <time>2022-05-12T07:35:51Z</time>
      </trkpt>
      <trkpt lat="48.61378" lon="1.94107">
        <ele>162</ele>
        <time>2022-05-12T07:35:57Z</time>
      </trkpt>
      <trkpt lat="48.61371" lon="1.94117">
        <ele>160.9</ele>
        <time>2022-05-12T07:36:03Z</time>
      </trkpt>
      <trkpt lat="48.61368" lon="1.9413">
        <ele>160</ele>
        <time>2022-05-12T07:36:10Z</time>
      </trkpt>
      <trkpt lat="48.61365" lon="1.94144">
        <ele>159.2</ele>
        <time>2022-05-12T07:36:17Z</time>
      </trkpt>
      <trkpt lat="48.61364" lon="1.94159">
        <ele>158.6</ele>
        <time>2022-05-12T07:36:24Z</time>
      </trkpt>
      <trkpt lat="48.61363" lon="1.94173">
        <ele>157.8</ele>
        <time>2022-05-12T07:36:31Z</time>
      </trkpt>
      <trkpt lat="48.61364" lon="1.94187">
        <ele>156.9</ele>
        <time>2022-05-12T07:36:37Z</time>
      </trkpt>
      <trkpt lat="48.61363" lon="1.94202">
        <ele>155.8</ele>
        <time>2022-05-12T07:36:44Z</time>
      </trkpt>
      <trkpt lat="48.61362" lon="1.94215">
        <ele>154.6</ele>
        <time>2022-05-12T07:36:52Z</time>
      </trkpt>
      <trkpt lat="48.61356" lon="1.94227">
        <ele>152.9</ele>
        <time>2022-05-12T07:37:02Z</time>
      </trkpt>
      <trkpt lat="48.61354" lon="1.94242">
        <ele>151.6</ele>
        <time>2022-05-12T07:37:09Z</time>
      </trkpt>
      <trkpt lat="48.61354" lon="1.94256">
        <ele>150.5</ele>
        <time>2022-05-12T07:37:15Z</time>
      </trkpt>
      <trkpt lat="48.61354" lon="1.94271">
        <ele>149.6</ele>
        <time>2022-05-12T07:37:21Z</time>
      </trkpt>
      <trkpt lat="48.61351" lon="1.94285">
        <ele>148.7</ele>
        <time>2022-05-12T07:37:29Z</time>
      </trkpt>
      <trkpt lat="48.61349" lon="1.94299">
        <ele>148</ele>
        <time>2022-05-12T07:37:35Z</time>
      </trkpt>
      <trkpt lat="48.61348" lon="1.94315">
        <ele>147.4</ele>
        <time>2022-05-12T07:37:41Z</time>
      </trkpt>
      <trkpt lat="48.61348" lon="1.9433">
        <ele>147.2</ele>
        <time>2022-05-12T07:37:46Z</time>
      </trkpt>
      <trkpt lat="48.61347" lon="1.94345">
        <ele>146.8</ele>
        <time>2022-05-12T07:37:52Z</time>
      </trkpt>
      <trkpt lat="48.61346" lon="1.9436">
        <ele>146.3</ele>
        <time>2022-05-12T07:38:00Z</time>
      </trkpt>
      <trkpt lat="48.61342" lon="1.94373">
        <ele>145.8</ele>
        <time>2022-05-12T07:38:08Z</time>
      </trkpt>
      <trkpt lat="48.6134" lon="1.94389">
        <ele>145.5</ele>
        <time>2022-05-12T07:38:15Z</time>
      </trkpt>
      <trkpt lat="48.61337" lon="1.94403">
        <ele>145.2</ele>
        <time>2022-05-12T07:38:21Z</time>
      </trkpt>
      <trkpt lat="48.61335" lon="1.94418">
        <ele>145</ele>
        <time>2022-05-12T07:38:27Z</time>
      </trkpt>
      <trkpt lat="48.61331" lon="1.94433">
        <ele>144.3</ele>
        <time>2022-05-12T07:38:34Z</time>
      </trkpt>
      <trkpt lat="48.61327" lon="1.94447">
        <ele>143.8</ele>
        <time>2022-05-12T07:38:40Z</time>
      </trkpt>
      <trkpt lat="48.61325" lon="1.94461">
        <ele>143.7</ele>
        <time>2022-05-12T07:38:47Z</time>
      </trkpt>
      <trkpt lat="48.61323" lon="1.94474">
        <ele>143.6</ele>
        <time>2022-05-12T07:38:54Z</time>
      </trkpt>
      <trkpt lat="48.61319" lon="1.94488">
        <ele>143.2</ele>
        <time>2022-05-12T07:39:00Z</time>
      </trkpt>
      <trkpt lat="48.61313" lon="1.94498">
        <ele>142.6</ele>
        <time>2022-05-12T07:39:07Z</time>
      </trkpt>
      <trkpt lat="48.61304" lon="1.94502">
        <ele>141.9</ele>
        <time>2022-05-12T07:39:15Z</time>
      </trkpt>
      <trkpt lat="48.61298" lon="1.94491">
        <ele>141.9</ele>
        <time>2022-05-12T07:39:25Z</time>
      </trkpt>
      <trkpt lat="48.61292" lon="1.9448">
        <ele>141.5</ele>
        <time>2022-05-12T07:39:33Z</time>
      </trkpt>
      <trkpt lat="48.61285" lon="1.94472">
        <ele>140.8</ele>
        <time>2022-05-12T07:39:40Z</time>
      </trkpt>
      <trkpt lat="48.61278" lon="1.94462">
        <ele>140.1</ele>
        <time>2022-05-12T07:39:47Z</time>
      </trkpt>
      <trkpt lat="48.6127" lon="1.94452">
        <ele>139.2</ele>
        <time>2022-05-12T07:39:54Z</time>
      </trkpt>
      <trkpt lat="48.61263" lon="1.94445">
        <ele>138.4</ele>
        <time>2022-05-12T07:40:01Z</time>
      </trkpt>
      <trkpt lat="48.61254" lon="1.94439">
        <ele>137.5</ele>
        <time>2022-05-12T07:40:07Z</time>
      </trkpt>
      <trkpt lat="48.61248" lon="1.94429">
        <ele>136.8</ele>
        <time>2022-05-12T07:40:13Z</time>
      </trkpt>
      <trkpt lat="48.61242" lon="1.94417">
        <ele>136.1</ele>
        <time>2022-05-12T07:40:20Z</time>
      </trkpt>
      <trkpt lat="48.61239" lon="1.94404">
        <ele>135.8</ele>
        <time>2022-05-12T07:40:30Z</time>
      </trkpt>
      <trkpt lat="48.61232" lon="1.94394">
        <ele>135</ele>
        <time>2022-05-12T07:40:37Z</time>
      </trkpt>
      <trkpt lat="48.61226" lon="1.94382">
        <ele>134.6</ele>
        <time>2022-05-12T07:40:45Z</time>
      </trkpt>
      <trkpt lat="48.61217" lon="1.94376">
        <ele>134.3</ele>
        <time>2022-05-12T07:40:50Z</time>
      </trkpt>
      <trkpt lat="48.61209" lon="1.9437">
        <ele>134.2</ele>
        <time>2022-05-12T07:40:55Z</time>
      </trkpt>
      <trkpt lat="48.61201" lon="1.94363">
        <ele>134.2</ele>
        <time>2022-05-12T07:41:01Z</time>
      </trkpt>
      <trkpt lat="48.61192" lon="1.94355">
        <ele>134.1</ele>
        <time>2022-05-12T07:41:08Z</time>
      </trkpt>
      <trkpt lat="48.61186" lon="1.94345">
        <ele>134</ele>
        <time>2022-05-12T07:41:15Z</time>
      </trkpt>
      <trkpt lat="48.61177" lon="1.94338">
        <ele>133.6</ele>
        <time>2022-05-12T07:41:21Z</time>
      </trkpt>
      <trkpt lat="48.61169" lon="1.94332">
        <ele>133.1</ele>
        <time>2022-05-12T07:41:28Z</time>
      </trkpt>
      <trkpt lat="48.61159" lon="1.94327">
        <ele>131.2</ele>
        <time>2022-05-12T07:41:33Z</time>
      </trkpt>
      <trkpt lat="48.61151" lon="1.94319">
        <ele>129.3</ele>
        <time>2022-05-12T07:41:41Z</time>
      </trkpt>
      <trkpt lat="48.61142" lon="1.9431">
        <ele>127.7</ele>
        <time>2022-05-12T07:41:49Z</time>
      </trkpt>
      <trkpt lat="48.61133" lon="1.94303">
        <ele>125.7</ele>
        <time>2022-05-12T07:41:55Z</time>
      </trkpt>
      <trkpt lat="48.61125" lon="1.94296">
        <ele>123.7</ele>
        <time>2022-05-12T07:42:02Z</time>
      </trkpt>
      <trkpt lat="48.61117" lon="1.9429">
        <ele>121.7</ele>
        <time>2022-05-12T07:42:08Z</time>
      </trkpt>
      <trkpt lat="48.61108" lon="1.94282">
        <ele>119.9</ele>
        <time>2022-05-12T07:42:14Z</time>
      </trkpt>
      <trkpt lat="48.61101" lon="1.94272">
        <ele>119.2</ele>
        <time>2022-05-12T07:42:20Z</time>
      </trkpt>
      <trkpt lat="48.61094" lon="1.94262">
        <ele>118.4</ele>
        <time>2022-05-12T07:42:27Z</time>
      </trkpt>
      <trkpt lat="48.61086" lon="1.94251">
        <ele>117.3</ele>
        <time>2022-05-12T07:42:35Z</time>
      </trkpt>
      <trkpt lat="48.61078" lon="1.94242">
        <ele>117.2</ele>
        <time>2022-05-12T07:42:41Z</time>
      </trkpt>
      <trkpt lat="48.6107" lon="1.94235">
        <ele>117.3</ele>
        <time>2022-05-12T07:42:47Z</time>
      </trkpt>
      <trkpt lat="48.61063" lon="1.94224">
        <ele>117.2</ele>
        <time>2022-05-12T07:42:54Z</time>
      </trkpt>
      <trkpt lat="48.61055" lon="1.94215">
        <ele>117</ele>
        <time>2022-05-12T07:43:00Z</time>
      </trkpt>
      <trkpt lat="48.61047" lon="1.94211">
        <ele>117.1</ele>
        <time>2022-05-12T07:43:06Z</time>
      </trkpt>
      <trkpt lat="48.61039" lon="1.94202">
        <ele>117.4</ele>
        <time>2022-05-12T07:43:12Z</time>
      </trkpt>
      <trkpt lat="48.61033" lon="1.9419">
        <ele>117.9</ele>
        <time>2022-05-12T07:43:21Z</time>
      </trkpt>
      <trkpt lat="48.61024" lon="1.94181">
        <ele>118</ele>
        <time>2022-05-12T07:43:28Z</time>
      </trkpt>
      <trkpt lat="48.6102" lon="1.94168">
        <ele>118</ele>
        <time>2022-05-12T07:43:36Z</time>
      </trkpt>
      <trkpt lat="48.61012" lon="1.9416">
        <ele>118</ele>
        <time>2022-05-12T07:43:42Z</time>
      </trkpt>
      <trkpt lat="48.61004" lon="1.94151">
        <ele>118</ele>
        <time>2022-05-12T07:43:48Z</time>
      </trkpt>
      <trkpt lat="48.60997" lon="1.94141">
        <ele>118.1</ele>
        <time>2022-05-12T07:43:56Z</time>
      </trkpt>
      <trkpt lat="48.6099" lon="1.94131">
        <ele>118.5</ele>
        <time>2022-05-12T07:44:02Z</time>
      </trkpt>
      <trkpt lat="48.60982" lon="1.94124">
        <ele>118.8</ele>
        <time>2022-05-12T07:44:08Z</time>
      </trkpt>
      <trkpt lat="48.60974" lon="1.94114">
        <ele>119</ele>
        <time>2022-05-12T07:44:14Z</time>
      </trkpt>
      <trkpt lat="48.60968" lon="1.94103">
        <ele>119</ele>
        <time>2022-05-12T07:44:23Z</time>
      </trkpt>
      <trkpt lat="48.60961" lon="1.94094">
        <ele>119</ele>
        <time>2022-05-12T07:44:29Z</time>
      </trkpt>
      <trkpt lat="48.60951" lon="1.94089">
        <ele>119</ele>
        <time>2022-05-12T07:44:34Z</time>
      </trkpt>
      <trkpt lat="48.60942" lon="1.94081">
        <ele>119.2</ele>
        <time>2022-05-12T07:44:40Z</time>
      </trkpt>
      <trkpt lat="48.60935" lon="1.94071">
        <ele>119.6</ele>
        <time>2022-05-12T07:44:47Z</time>
      </trkpt>
      <trkpt lat="48.60927" lon="1.94063">
        <ele>119.9</ele>
        <time>2022-05-12T07:44:55Z</time>
      </trkpt>
      <trkpt lat="48.60918" lon="1.94057">
        <ele>120</ele>
        <time>2022-05-12T07:45:03Z</time>
      </trkpt>
      <trkpt lat="48.60909" lon="1.94051">
        <ele>120</ele>
        <time>2022-05-12T07:45:08Z</time>
      </trkpt>
      <trkpt lat="48.609" lon="1.94043">
        <ele>120</ele>
        <time>2022-05-12T07:45:15Z</time>
      </trkpt>
      <trkpt lat="48.60891" lon="1.94036">
        <ele>120</ele>
        <time>2022-05-12T07:45:20Z</time>
      </trkpt>
      <trkpt lat="48.60884" lon="1.94026">
        <ele>119.8</ele>
        <time>2022-05-12T07:45:27Z</time>
      </trkpt>
      <trkpt lat="48.60876" lon="1.94016">
        <ele>119.3</ele>
        <time>2022-05-12T07:45:34Z</time>
      </trkpt>
      <trkpt lat="48.60868" lon="1.94008">
        <ele>119.1</ele>
        <time>2022-05-12T07:45:40Z</time>
      </trkpt>
      <trkpt lat="48.60858" lon="1.94002">
        <ele>119</ele>
        <time>2022-05-12T07:45:46Z</time>
      </trkpt>
      <trkpt lat="48.60851" lon="1.93993">
        <ele>119</ele>
        <time>2022-05-12T07:45:53Z</time>
      </trkpt>
      <trkpt lat="48.60843" lon="1.93987">
        <ele>119</ele>
        <time>2022-05-12T07:46:00Z</time>
      </trkpt>
      <trkpt lat="48.60833" lon="1.9398">
        <ele>119</ele>
        <time>2022-05-12T07:46:08Z</time>
      </trkpt>
      <trkpt lat="48.60825" lon="1.93974">
        <ele>119</ele>
        <time>2022-05-12T07:46:15Z</time>
      </trkpt>
      <trkpt lat="48.60816" lon="1.93972">
        <ele>119</ele>
        <time>2022-05-12T07:46:22Z</time>
      </trkpt>
      <trkpt lat="48.60808" lon="1.93981">
        <ele>119</ele>
        <time>2022-05-12T07:46:28Z</time>
      </trkpt>
      <trkpt lat="48.608" lon="1.9399">
        <ele>118.9</ele>
        <time>2022-05-12T07:46:33Z</time>
      </trkpt>
      <trkpt lat="48.60792" lon="1.93999">
        <ele>119</ele>
        <time>2022-05-12T07:46:38Z</time>
      </trkpt>
      <trkpt lat="48.60784" lon="1.94008">
        <ele>119</ele>
        <time>2022-05-12T07:46:44Z</time>
      </trkpt>
      <trkpt lat="48.60777" lon="1.94017">
        <ele>119</ele>
        <time>2022-05-12T07:46:51Z</time>
      </trkpt>
      <trkpt lat="48.60769" lon="1.94025">
        <ele>118.7</ele>
        <time>2022-05-12T07:46:57Z</time>
      </trkpt>
      <trkpt lat="48.60763" lon="1.94035">
        <ele>118.6</ele>
        <time>2022-05-12T07:47:03Z</time>
      </trkpt>
      <trkpt lat="48.60756" lon="1.94044">
        <ele>118.7</ele>
        <time>2022-05-12T07:47:10Z</time>
      </trkpt>
      <trkpt lat="48.60747" lon="1.94049">
        <ele>118.7</ele>
        <time>2022-05-12T07:47:18Z</time>
      </trkpt>
      <trkpt lat="48.60739" lon="1.94057">
        <ele>118.6</ele>
        <time>2022-05-12T07:47:24Z</time>
      </trkpt>
      <trkpt lat="48.60731" lon="1.94063">
        <ele>118.5</ele>
        <time>2022-05-12T07:47:30Z</time>
      </trkpt>
      <trkpt lat="48.60725" lon="1.94073">
        <ele>118.7</ele>
        <time>2022-05-12T07:47:36Z</time>
      </trkpt>
      <trkpt lat="48.60718" lon="1.94086">
        <ele>118.8</ele>
        <time>2022-05-12T07:47:41Z</time>
      </trkpt>
      <trkpt lat="48.60712" lon="1.94096">
        <ele>118.6</ele>
        <time>2022-05-12T07:47:47Z</time>
      </trkpt>
      <trkpt lat="48.60706" lon="1.94108">
        <ele>118.4</ele>
        <time>2022-05-12T07:47:53Z</time>
      </trkpt>
      <trkpt lat="48.607" lon="1.94121">
        <ele>118.5</ele>
        <time>2022-05-12T07:48:00Z</time>
      </trkpt>
      <trkpt lat="48.60694" lon="1.94134">
        <ele>118.8</ele>
        <time>2022-05-12T07:48:07Z</time>
      </trkpt>
      <trkpt lat="48.60695" lon="1.9415">
        <ele>119</ele>
        <time>2022-05-12T07:48:16Z</time>
      </trkpt>
      <trkpt lat="48.60699" lon="1.94162">
        <ele>119.1</ele>
        <time>2022-05-12T07:48:22Z</time>
      </trkpt>
      <trkpt lat="48.60705" lon="1.94175">
        <ele>119.4</ele>
        <time>2022-05-12T07:48:30Z</time>
      </trkpt>
      <trkpt lat="48.60712" lon="1.94185">
        <ele>119.6</ele>
        <time>2022-05-12T07:48:36Z</time>
      </trkpt>
      <trkpt lat="48.60719" lon="1.94194">
        <ele>119.9</ele>
        <time>2022-05-12T07:48:44Z</time>
      </trkpt>
      <trkpt lat="48.60726" lon="1.94202">
        <ele>120</ele>
        <time>2022-05-12T07:48:49Z</time>
      </trkpt>
      <trkpt lat="48.60732" lon="1.94213">
        <ele>120</ele>
        <time>2022-05-12T07:48:54Z</time>
      </trkpt>
      <trkpt lat="48.60739" lon="1.94223">
        <ele>120</ele>
        <time>2022-05-12T07:49:00Z</time>
      </trkpt>
      <trkpt lat="48.60745" lon="1.94233">
        <ele>120</ele>
        <time>2022-05-12T07:49:06Z</time>
      </trkpt>
      <trkpt lat="48.60754" lon="1.9424">
        <ele>120</ele>
        <time>2022-05-12T07:49:11Z</time>
      </trkpt>
      <trkpt lat="48.60761" lon="1.94248">
        <ele>120</ele>
        <time>2022-05-12T07:49:17Z</time>
      </trkpt>
      <trkpt lat="48.6077" lon="1.94256">
        <ele>120</ele>
        <time>2022-05-12T07:49:25Z</time>
      </trkpt>
      <trkpt lat="48.60778" lon="1.94262">
        <ele>120</ele>
        <time>2022-05-12T07:49:31Z</time>
      </trkpt>
      <trkpt lat="48.60786" lon="1.94269">
        <ele>119.8</ele>
        <time>2022-05-12T07:49:37Z</time>
      </trkpt>
      <trkpt lat="48.60794" lon="1.94277">
        <ele>119.4</ele>
        <time>2022-05-12T07:49:43Z</time>
      </trkpt>
      <trkpt lat="48.60802" lon="1.94284">
        <ele>119.1</ele>
        <time>2022-05-12T07:49:49Z</time>
      </trkpt>
      <trkpt lat="48.6081" lon="1.9429">
        <ele>119</ele>
        <time>2022-05-12T07:49:55Z</time>
      </trkpt>
      <trkpt lat="48.60819" lon="1.94297">
        <ele>119</ele>
        <time>2022-05-12T07:50:02Z</time>
      </trkpt>
      <trkpt lat="48.60827" lon="1.94306">
        <ele>119</ele>
        <time>2022-05-12T07:50:07Z</time>
      </trkpt>
      <trkpt lat="48.60833" lon="1.94316">
        <ele>118.6</ele>
        <time>2022-05-12T07:50:12Z</time>
      </trkpt>
      <trkpt lat="48.6084" lon="1.94328">
        <ele>118.2</ele>
        <time>2022-05-12T07:50:20Z</time>
      </trkpt>
      <trkpt lat="48.60847" lon="1.94336">
        <ele>118</ele>
        <time>2022-05-12T07:50:26Z</time>
      </trkpt>
      <trkpt lat="48.60856" lon="1.94342">
        <ele>118</ele>
        <time>2022-05-12T07:50:32Z</time>
      </trkpt>
      <trkpt lat="48.60864" lon="1.9435">
        <ele>117.9</ele>
        <time>2022-05-12T07:50:38Z</time>
      </trkpt>
      <trkpt lat="48.60871" lon="1.94359">
        <ele>117.7</ele>
        <time>2022-05-12T07:50:44Z</time>
      </trkpt>
      <trkpt lat="48.60878" lon="1.94368">
        <ele>117.3</ele>
        <time>2022-05-12T07:50:51Z</time>
      </trkpt>
      <trkpt lat="48.60885" lon="1.94377">
        <ele>117.1</ele>
        <time>2022-05-12T07:50:58Z</time>
      </trkpt>
      <trkpt lat="48.60893" lon="1.94387">
        <ele>117</ele>
        <time>2022-05-12T07:51:06Z</time>
      </trkpt>
      <trkpt lat="48.60902" lon="1.94395">
        <ele>117</ele>
        <time>2022-05-12T07:51:15Z</time>
      </trkpt>
      <trkpt lat="48.60909" lon="1.94403">
        <ele>117</ele>
        <time>2022-05-12T07:51:22Z</time>
      </trkpt>
      <trkpt lat="48.60918" lon="1.94407">
        <ele>117</ele>
        <time>2022-05-12T07:51:32Z</time>
      </trkpt>
      <trkpt lat="48.60921" lon="1.94421">
        <ele>116.9</ele>
        <time>2022-05-12T07:51:48Z</time>
      </trkpt>
      <trkpt lat="48.60925" lon="1.94434">
        <ele>116.6</ele>
        <time>2022-05-12T07:52:49Z</time>
      </trkpt>
      <trkpt lat="48.60931" lon="1.94444">
        <ele>116.5</ele>
        <time>2022-05-12T07:54:45Z</time>
      </trkpt>
      <trkpt lat="48.60925" lon="1.94456">
        <ele>116.2</ele>
        <time>2022-05-12T07:54:56Z</time>
      </trkpt>
      <trkpt lat="48.6092" lon="1.94467">
        <ele>116</ele>
        <time>2022-05-12T07:55:07Z</time>
      </trkpt>
      <trkpt lat="48.60912" lon="1.94476">
        <ele>115.9</ele>
        <time>2022-05-12T07:55:18Z</time>
      </trkpt>
      <trkpt lat="48.60906" lon="1.94487">
        <ele>115.7</ele>
        <time>2022-05-12T07:55:25Z</time>
      </trkpt>
      <trkpt lat="48.60901" lon="1.94499">
        <ele>115.6</ele>
        <time>2022-05-12T07:55:31Z</time>
      </trkpt>
      <trkpt lat="48.60896" lon="1.94511">
        <ele>115.7</ele>
        <time>2022-05-12T07:55:38Z</time>
      </trkpt>
      <trkpt lat="48.6089" lon="1.94523">
        <ele>116</ele>
        <time>2022-05-12T07:55:44Z</time>
      </trkpt>
      <trkpt lat="48.60884" lon="1.94536">
        <ele>116</ele>
        <time>2022-05-12T07:55:51Z</time>
      </trkpt>
      <trkpt lat="48.60877" lon="1.94546">
        <ele>116</ele>
        <time>2022-05-12T07:55:57Z</time>
      </trkpt>
      <trkpt lat="48.60872" lon="1.94557">
        <ele>116</ele>
        <time>2022-05-12T07:56:02Z</time>
      </trkpt>
      <trkpt lat="48.60867" lon="1.9457">
        <ele>116</ele>
        <time>2022-05-12T07:56:08Z</time>
      </trkpt>
      <trkpt lat="48.60861" lon="1.94582">
        <ele>116</ele>
        <time>2022-05-12T07:56:14Z</time>
      </trkpt>
      <trkpt lat="48.60856" lon="1.94594">
        <ele>115.6</ele>
        <time>2022-05-12T07:56:20Z</time>
      </trkpt>
      <trkpt lat="48.6085" lon="1.94605">
        <ele>115.2</ele>
        <time>2022-05-12T07:56:26Z</time>
      </trkpt>
      <trkpt lat="48.60844" lon="1.94617">
        <ele>115</ele>
        <time>2022-05-12T07:56:31Z</time>
      </trkpt>
      <trkpt lat="48.6084" lon="1.9463">
        <ele>115</ele>
        <time>2022-05-12T07:56:36Z</time>
      </trkpt>
      <trkpt lat="48.60834" lon="1.94642">
        <ele>114.9</ele>
        <time>2022-05-12T07:56:42Z</time>
      </trkpt>
      <trkpt lat="48.60828" lon="1.94655">
        <ele>114.4</ele>
        <time>2022-05-12T07:56:50Z</time>
      </trkpt>
      <trkpt lat="48.6082" lon="1.94665">
        <ele>114.1</ele>
        <time>2022-05-12T07:56:58Z</time>
      </trkpt>
      <trkpt lat="48.60813" lon="1.94675">
        <ele>113.9</ele>
        <time>2022-05-12T07:57:05Z</time>
      </trkpt>
      <trkpt lat="48.60808" lon="1.9469">
        <ele>113.9</ele>
        <time>2022-05-12T07:57:11Z</time>
      </trkpt>
      <trkpt lat="48.60804" lon="1.94702">
        <ele>113.7</ele>
        <time>2022-05-12T07:57:17Z</time>
      </trkpt>
      <trkpt lat="48.608" lon="1.94715">
        <ele>113.2</ele>
        <time>2022-05-12T07:57:24Z</time>
      </trkpt>
      <trkpt lat="48.60792" lon="1.94727">
        <ele>112.8</ele>
        <time>2022-05-12T07:57:31Z</time>
      </trkpt>
      <trkpt lat="48.60786" lon="1.94738">
        <ele>112.4</ele>
        <time>2022-05-12T07:57:37Z</time>
      </trkpt>
      <trkpt lat="48.60779" lon="1.94748">
        <ele>112.1</ele>
        <time>2022-05-12T07:57:43Z</time>
      </trkpt>
      <trkpt lat="48.60774" lon="1.9476">
        <ele>112.1</ele>
        <time>2022-05-12T07:57:48Z</time>
      </trkpt>
      <trkpt lat="48.60769" lon="1.94772">
        <ele>112.3</ele>
        <time>2022-05-12T07:57:53Z</time>
      </trkpt>
      <trkpt lat="48.60763" lon="1.94783">
        <ele>112.5</ele>
        <time>2022-05-12T07:57:59Z</time>
      </trkpt>
      <trkpt lat="48.60758" lon="1.94796">
        <ele>112.7</ele>
        <time>2022-05-12T07:58:06Z</time>
      </trkpt>
      <trkpt lat="48.60753" lon="1.94808">
        <ele>112.9</ele>
        <time>2022-05-12T07:58:13Z</time>
      </trkpt>
      <trkpt lat="48.60747" lon="1.94819">
        <ele>113</ele>
        <time>2022-05-12T07:58:20Z</time>
      </trkpt>
      <trkpt lat="48.60741" lon="1.94831">
        <ele>113</ele>
        <time>2022-05-12T07:58:26Z</time>
      </trkpt>
      <trkpt lat="48.60735" lon="1.94844">
        <ele>112.8</ele>
        <time>2022-05-12T07:58:33Z</time>
      </trkpt>
      <trkpt lat="48.60729" lon="1.94854">
        <ele>112.8</ele>
        <time>2022-05-12T07:58:39Z</time>
      </trkpt>
      <trkpt lat="48.60724" lon="1.94867">
        <ele>112.8</ele>
        <time>2022-05-12T07:58:45Z</time>
      </trkpt>
      <trkpt lat="48.60718" lon="1.94878">
        <ele>112.4</ele>
        <time>2022-05-12T07:58:51Z</time>
      </trkpt>
      <trkpt lat="48.60713" lon="1.94889">
        <ele>112</ele>
        <time>2022-05-12T07:58:58Z</time>
      </trkpt>
      <trkpt lat="48.60706" lon="1.949">
        <ele>112</ele>
        <time>2022-05-12T07:59:04Z</time>
      </trkpt>
      <trkpt lat="48.607" lon="1.94911">
        <ele>112</ele>
        <time>2022-05-12T07:59:11Z</time>
      </trkpt>
      <trkpt lat="48.60693" lon="1.94922">
        <ele>111.8</ele>
        <time>2022-05-12T07:59:17Z</time>
      </trkpt>
      <trkpt lat="48.6069" lon="1.94936">
        <ele>111.3</ele>
        <time>2022-05-12T07:59:25Z</time>
      </trkpt>
      <trkpt lat="48.60688" lon="1.9495">
        <ele>111</ele>
        <time>2022-05-12T07:59:52Z</time>
      </trkpt>
      <trkpt lat="48.60679" lon="1.94948">
        <ele>111</ele>
        <time>2022-05-12T08:00:12Z</time>
      </trkpt>
      <trkpt lat="48.60671" lon="1.94955">
        <ele>111</ele>
        <time>2022-05-12T08:00:19Z</time>
      </trkpt>
      <trkpt lat="48.60661" lon="1.9496">
        <ele>111</ele>
        <time>2022-05-12T08:00:29Z</time>
      </trkpt>
      <trkpt lat="48.60652" lon="1.94963">
        <ele>111</ele>
        <time>2022-05-12T08:00:38Z</time>
      </trkpt>
      <trkpt lat="48.60644" lon="1.94971">
        <ele>111</ele>
        <time>2022-05-12T08:00:47Z</time>
      </trkpt>
      <trkpt lat="48.60635" lon="1.94977">
        <ele>111.1</ele>
        <time>2022-05-12T08:00:55Z</time>
      </trkpt>
      <trkpt lat="48.60626" lon="1.94979">
        <ele>111.3</ele>
        <time>2022-05-12T08:01:03Z</time>
      </trkpt>
      <trkpt lat="48.60617" lon="1.94984">
        <ele>111.5</ele>
        <time>2022-05-12T08:01:10Z</time>
      </trkpt>
      <trkpt lat="48.60607" lon="1.9499">
        <ele>111.5</ele>
        <time>2022-05-12T08:01:19Z</time>
      </trkpt>
      <trkpt lat="48.60597" lon="1.94991">
        <ele>111.7</ele>
        <time>2022-05-12T08:01:28Z</time>
      </trkpt>
      <trkpt lat="48.60588" lon="1.94994">
        <ele>111.9</ele>
        <time>2022-05-12T08:01:34Z</time>
      </trkpt>
      <trkpt lat="48.60578" lon="1.94996">
        <ele>112</ele>
        <time>2022-05-12T08:01:41Z</time>
      </trkpt>
      <trkpt lat="48.6057" lon="1.95004">
        <ele>112</ele>
        <time>2022-05-12T08:01:48Z</time>
      </trkpt>
      <trkpt lat="48.60561" lon="1.95008">
        <ele>112</ele>
        <time>2022-05-12T08:01:56Z</time>
      </trkpt>
      <trkpt lat="48.60552" lon="1.95012">
        <ele>112</ele>
        <time>2022-05-12T08:02:04Z</time>
      </trkpt>
      <trkpt lat="48.60542" lon="1.95018">
        <ele>112</ele>
        <time>2022-05-12T08:02:11Z</time>
      </trkpt>
      <trkpt lat="48.60534" lon="1.95024">
        <ele>112</ele>
        <time>2022-05-12T08:02:20Z</time>
      </trkpt>
      <trkpt lat="48.60525" lon="1.95031">
        <ele>112</ele>
        <time>2022-05-12T08:02:31Z</time>
      </trkpt>
      <trkpt lat="48.60516" lon="1.95034">
        <ele>112</ele>
        <time>2022-05-12T08:02:37Z</time>
      </trkpt>
      <trkpt lat="48.60506" lon="1.95038">
        <ele>112</ele>
        <time>2022-05-12T08:02:44Z</time>
      </trkpt>
      <trkpt lat="48.60496" lon="1.95041">
        <ele>112</ele>
        <time>2022-05-12T08:02:51Z</time>
      </trkpt>
      <trkpt lat="48.60487" lon="1.95045">
        <ele>112</ele>
        <time>2022-05-12T08:02:56Z</time>
      </trkpt>
      <trkpt lat="48.60479" lon="1.95054">
        <ele>112</ele>
        <time>2022-05-12T08:03:03Z</time>
      </trkpt>
      <trkpt lat="48.6047" lon="1.95059">
        <ele>112.1</ele>
        <time>2022-05-12T08:03:09Z</time>
      </trkpt>
      <trkpt lat="48.6046" lon="1.95062">
        <ele>112.3</ele>
        <time>2022-05-12T08:03:16Z</time>
      </trkpt>
      <trkpt lat="48.60451" lon="1.95067">
        <ele>112.5</ele>
        <time>2022-05-12T08:03:22Z</time>
      </trkpt>
      <trkpt lat="48.60442" lon="1.95071">
        <ele>112.5</ele>
        <time>2022-05-12T08:03:28Z</time>
      </trkpt>
      <trkpt lat="48.60432" lon="1.95078">
        <ele>112.5</ele>
        <time>2022-05-12T08:03:34Z</time>
      </trkpt>
      <trkpt lat="48.60423" lon="1.95082">
        <ele>112.8</ele>
        <time>2022-05-12T08:03:40Z</time>
      </trkpt>
      <trkpt lat="48.60413" lon="1.95083">
        <ele>113</ele>
        <time>2022-05-12T08:03:47Z</time>
      </trkpt>
      <trkpt lat="48.60403" lon="1.95087">
        <ele>113</ele>
        <time>2022-05-12T08:03:53Z</time>
      </trkpt>
      <trkpt lat="48.60395" lon="1.95093">
        <ele>113</ele>
        <time>2022-05-12T08:04:00Z</time>
      </trkpt>
      <trkpt lat="48.60387" lon="1.95101">
        <ele>113</ele>
        <time>2022-05-12T08:04:07Z</time>
      </trkpt>
      <trkpt lat="48.60377" lon="1.95103">
        <ele>113</ele>
        <time>2022-05-12T08:04:13Z</time>
      </trkpt>
      <trkpt lat="48.60368" lon="1.95106">
        <ele>113</ele>
        <time>2022-05-12T08:04:18Z</time>
      </trkpt>
      <trkpt lat="48.60358" lon="1.95108">
        <ele>113</ele>
        <time>2022-05-12T08:04:24Z</time>
      </trkpt>
      <trkpt lat="48.60349" lon="1.95115">
        <ele>113</ele>
        <time>2022-05-12T08:04:29Z</time>
      </trkpt>
      <trkpt lat="48.6034" lon="1.95122">
        <ele>113</ele>
        <time>2022-05-12T08:04:35Z</time>
      </trkpt>
      <trkpt lat="48.60332" lon="1.95126">
        <ele>113</ele>
        <time>2022-05-12T08:04:40Z</time>
      </trkpt>
      <trkpt lat="48.60322" lon="1.9513">
        <ele>113</ele>
        <time>2022-05-12T08:04:48Z</time>
      </trkpt>
      <trkpt lat="48.60312" lon="1.95131">
        <ele>113</ele>
        <time>2022-05-12T08:04:55Z</time>
      </trkpt>
      <trkpt lat="48.60303" lon="1.95136">
        <ele>113</ele>
        <time>2022-05-12T08:05:01Z</time>
      </trkpt>
      <trkpt lat="48.60294" lon="1.95141">
        <ele>113</ele>
        <time>2022-05-12T08:05:08Z</time>
      </trkpt>
      <trkpt lat="48.60285" lon="1.95145">
        <ele>113</ele>
        <time>2022-05-12T08:05:17Z</time>
      </trkpt>
      <trkpt lat="48.60277" lon="1.95151">
        <ele>113</ele>
        <time>2022-05-12T08:05:24Z</time>
      </trkpt>
      <trkpt lat="48.60268" lon="1.95158">
        <ele>113</ele>
        <time>2022-05-12T08:05:30Z</time>
      </trkpt>
      <trkpt lat="48.60258" lon="1.95161">
        <ele>113</ele>
        <time>2022-05-12T08:05:36Z</time>
      </trkpt>
      <trkpt lat="48.60249" lon="1.95166">
        <ele>113</ele>
        <time>2022-05-12T08:05:42Z</time>
      </trkpt>
      <trkpt lat="48.6024" lon="1.95172">
        <ele>113</ele>
        <time>2022-05-12T08:05:48Z</time>
      </trkpt>
      <trkpt lat="48.60232" lon="1.95179">
        <ele>113</ele>
        <time>2022-05-12T08:05:54Z</time>
      </trkpt>
      <trkpt lat="48.60223" lon="1.95184">
        <ele>113</ele>
        <time>2022-05-12T08:06:00Z</time>
      </trkpt>
      <trkpt lat="48.60213" lon="1.95188">
        <ele>113.1</ele>
        <time>2022-05-12T08:06:06Z</time>
      </trkpt>
      <trkpt lat="48.60204" lon="1.95193">
        <ele>113</ele>
        <time>2022-05-12T08:06:12Z</time>
      </trkpt>
      <trkpt lat="48.60195" lon="1.95197">
        <ele>113</ele>
        <time>2022-05-12T08:06:19Z</time>
      </trkpt>
      <trkpt lat="48.60185" lon="1.95199">
        <ele>113</ele>
        <time>2022-05-12T08:06:28Z</time>
      </trkpt>
      <trkpt lat="48.60175" lon="1.95201">
        <ele>113</ele>
        <time>2022-05-12T08:06:35Z</time>
      </trkpt>
      <trkpt lat="48.60166" lon="1.95204">
        <ele>113</ele>
        <time>2022-05-12T08:06:41Z</time>
      </trkpt>
      <trkpt lat="48.60157" lon="1.95209">
        <ele>113</ele>
        <time>2022-05-12T08:06:47Z</time>
      </trkpt>
      <trkpt lat="48.60149" lon="1.95215">
        <ele>113</ele>
        <time>2022-05-12T08:06:53Z</time>
      </trkpt>
      <trkpt lat="48.60141" lon="1.95223">
        <ele>113</ele>
        <time>2022-05-12T08:06:59Z</time>
      </trkpt>
      <trkpt lat="48.60131" lon="1.95226">
        <ele>113</ele>
        <time>2022-05-12T08:07:07Z</time>
      </trkpt>
      <trkpt lat="48.60122" lon="1.95232">
        <ele>113</ele>
        <time>2022-05-12T08:07:14Z</time>
      </trkpt>
      <trkpt lat="48.60112" lon="1.95236">
        <ele>113</ele>
        <time>2022-05-12T08:07:21Z</time>
      </trkpt>
      <trkpt lat="48.60103" lon="1.95242">
        <ele>113</ele>
        <time>2022-05-12T08:07:27Z</time>
      </trkpt>
      <trkpt lat="48.60095" lon="1.9525">
        <ele>113</ele>
        <time>2022-05-12T08:07:34Z</time>
      </trkpt>
      <trkpt lat="48.60087" lon="1.9526">
        <ele>113</ele>
        <time>2022-05-12T08:07:40Z</time>
      </trkpt>
      <trkpt lat="48.60083" lon="1.95273">
        <ele>113</ele>
        <time>2022-05-12T08:07:47Z</time>
      </trkpt>
      <trkpt lat="48.60077" lon="1.95286">
        <ele>112.8</ele>
        <time>2022-05-12T08:07:55Z</time>
      </trkpt>
      <trkpt lat="48.60069" lon="1.95292">
        <ele>112.8</ele>
        <time>2022-05-12T08:08:02Z</time>
      </trkpt>
      <trkpt lat="48.60061" lon="1.953">
        <ele>112.9</ele>
        <time>2022-05-12T08:08:09Z</time>
      </trkpt>
      <trkpt lat="48.60053" lon="1.95308">
        <ele>113</ele>
        <time>2022-05-12T08:08:15Z</time>
      </trkpt>
      <trkpt lat="48.60045" lon="1.95317">
        <ele>113</ele>
        <time>2022-05-12T08:08:21Z</time>
      </trkpt>
      <trkpt lat="48.60039" lon="1.95327">
        <ele>113</ele>
        <time>2022-05-12T08:08:26Z</time>
      </trkpt>
      <trkpt lat="48.60034" lon="1.9534">
        <ele>113</ele>
        <time>2022-05-12T08:08:32Z</time>
      </trkpt>
      <trkpt lat="48.60029" lon="1.95353">
        <ele>113</ele>
        <time>2022-05-12T08:08:38Z</time>
      </trkpt>
      <trkpt lat="48.60022" lon="1.95361">
        <ele>113.2</ele>
        <time>2022-05-12T08:08:44Z</time>
      </trkpt>
      <trkpt lat="48.60015" lon="1.95372">
        <ele>113.7</ele>
        <time>2022-05-12T08:08:50Z</time>
      </trkpt>
      <trkpt lat="48.60012" lon="1.95386">
        <ele>114</ele>
        <time>2022-05-12T08:08:56Z</time>
      </trkpt>
      <trkpt lat="48.60008" lon="1.95399">
        <ele>114</ele>
        <time>2022-05-12T08:09:03Z</time>
      </trkpt>
      <trkpt lat="48.60001" lon="1.9541">
        <ele>114</ele>
        <time>2022-05-12T08:09:09Z</time>
      </trkpt>
      <trkpt lat="48.59994" lon="1.95422">
        <ele>114.2</ele>
        <time>2022-05-12T08:09:15Z</time>
      </trkpt>
      <trkpt lat="48.59988" lon="1.95433">
        <ele>114.4</ele>
        <time>2022-05-12T08:09:22Z</time>
      </trkpt>
      <trkpt lat="48.59982" lon="1.95445">
        <ele>114.7</ele>
        <time>2022-05-12T08:09:29Z</time>
      </trkpt>
      <trkpt lat="48.59976" lon="1.95456">
        <ele>115.3</ele>
        <time>2022-05-12T08:09:35Z</time>
      </trkpt>
      <trkpt lat="48.59969" lon="1.95468">
        <ele>116</ele>
        <time>2022-05-12T08:09:41Z</time>
      </trkpt>
      <trkpt lat="48.59962" lon="1.95477">
        <ele>116.9</ele>
        <time>2022-05-12T08:09:48Z</time>
      </trkpt>
      <trkpt lat="48.59956" lon="1.9549">
        <ele>117.8</ele>
        <time>2022-05-12T08:09:55Z</time>
      </trkpt>
      <trkpt lat="48.5995" lon="1.95501">
        <ele>118.7</ele>
        <time>2022-05-12T08:10:01Z</time>
      </trkpt>
      <trkpt lat="48.59945" lon="1.95513">
        <ele>119.4</ele>
        <time>2022-05-12T08:10:06Z</time>
      </trkpt>
      <trkpt lat="48.5994" lon="1.95525">
        <ele>119.9</ele>
        <time>2022-05-12T08:10:12Z</time>
      </trkpt>
      <trkpt lat="48.59935" lon="1.95536">
        <ele>120.2</ele>
        <time>2022-05-12T08:10:19Z</time>
      </trkpt>
      <trkpt lat="48.5993" lon="1.95548">
        <ele>120.4</ele>
        <time>2022-05-12T08:10:28Z</time>
      </trkpt>
      <trkpt lat="48.59924" lon="1.95558">
        <ele>120.3</ele>
        <time>2022-05-12T08:10:36Z</time>
      </trkpt>
      <trkpt lat="48.59921" lon="1.95571">
        <ele>120.6</ele>
        <time>2022-05-12T08:10:43Z</time>
      </trkpt>
      <trkpt lat="48.59915" lon="1.95584">
        <ele>121</ele>
        <time>2022-05-12T08:10:50Z</time>
      </trkpt>
      <trkpt lat="48.5991" lon="1.95596">
        <ele>121.2</ele>
        <time>2022-05-12T08:10:57Z</time>
      </trkpt>
      <trkpt lat="48.59904" lon="1.95607">
        <ele>121.4</ele>
        <time>2022-05-12T08:11:05Z</time>
      </trkpt>
      <trkpt lat="48.59898" lon="1.95619">
        <ele>121.6</ele>
        <time>2022-05-12T08:11:12Z</time>
      </trkpt>
      <trkpt lat="48.59893" lon="1.95631">
        <ele>121.9</ele>
        <time>2022-05-12T08:11:20Z</time>
      </trkpt>
      <trkpt lat="48.59886" lon="1.95643">
        <ele>122</ele>
        <time>2022-05-12T08:11:28Z</time>
      </trkpt>
      <trkpt lat="48.59882" lon="1.95654">
        <ele>122.1</ele>
        <time>2022-05-12T08:11:36Z</time>
      </trkpt>
      <trkpt lat="48.59875" lon="1.95663">
        <ele>121.9</ele>
        <time>2022-05-12T08:12:44Z</time>
      </trkpt>
      <trkpt lat="48.59878" lon="1.95676">
        <ele>122.3</ele>
        <time>2022-05-12T08:14:10Z</time>
      </trkpt>
      <trkpt lat="48.59885" lon="1.95684">
        <ele>122.8</ele>
        <time>2022-05-12T08:14:19Z</time>
      </trkpt>
      <trkpt lat="48.59894" lon="1.95688">
        <ele>123.3</ele>
        <time>2022-05-12T08:14:27Z</time>
      </trkpt>
      <trkpt lat="48.59903" lon="1.95688">
        <ele>123.9</ele>
        <time>2022-05-12T08:14:34Z</time>
      </trkpt>
      <trkpt lat="48.59913" lon="1.95687">
        <ele>124.5</ele>
        <time>2022-05-12T08:14:40Z</time>
      </trkpt>
      <trkpt lat="48.59922" lon="1.95686">
        <ele>124.9</ele>
        <time>2022-05-12T08:14:47Z</time>
      </trkpt>
      <trkpt lat="48.59931" lon="1.95686">
        <ele>125.2</ele>
        <time>2022-05-12T08:14:53Z</time>
      </trkpt>
      <trkpt lat="48.59941" lon="1.95686">
        <ele>125.6</ele>
        <time>2022-05-12T08:15:01Z</time>
      </trkpt>
      <trkpt lat="48.59951" lon="1.95688">
        <ele>125.5</ele>
        <time>2022-05-12T08:15:10Z</time>
      </trkpt>
      <trkpt lat="48.59961" lon="1.9569">
        <ele>125.2</ele>
        <time>2022-05-12T08:15:17Z</time>
      </trkpt>
      <trkpt lat="48.59971" lon="1.95689">
        <ele>124.9</ele>
        <time>2022-05-12T08:15:23Z</time>
      </trkpt>
      <trkpt lat="48.5998" lon="1.95691">
        <ele>124.3</ele>
        <time>2022-05-12T08:15:29Z</time>
      </trkpt>
      <trkpt lat="48.59989" lon="1.95696">
        <ele>123.9</ele>
        <time>2022-05-12T08:15:37Z</time>
      </trkpt>
      <trkpt lat="48.59997" lon="1.95703">
        <ele>123.5</ele>
        <time>2022-05-12T08:15:45Z</time>
      </trkpt>
      <trkpt lat="48.60005" lon="1.95711">
        <ele>122.9</ele>
        <time>2022-05-12T08:15:52Z</time>
      </trkpt>
      <trkpt lat="48.60009" lon="1.95724">
        <ele>122.9</ele>
        <time>2022-05-12T08:16:00Z</time>
      </trkpt>
      <trkpt lat="48.60014" lon="1.95735">
        <ele>122.6</ele>
        <time>2022-05-12T08:16:06Z</time>
      </trkpt>
      <trkpt lat="48.60021" lon="1.95747">
        <ele>122.2</ele>
        <time>2022-05-12T08:16:13Z</time>
      </trkpt>
      <trkpt lat="48.60026" lon="1.9576">
        <ele>121.6</ele>
        <time>2022-05-12T08:16:20Z</time>
      </trkpt>
      <trkpt lat="48.60032" lon="1.95772">
        <ele>121.3</ele>
        <time>2022-05-12T08:16:28Z</time>
      </trkpt>
      <trkpt lat="48.60036" lon="1.95785">
        <ele>120.9</ele>
        <time>2022-05-12T08:16:33Z</time>
      </trkpt>
      <trkpt lat="48.60041" lon="1.95797">
        <ele>120.4</ele>
        <time>2022-05-12T08:16:41Z</time>
      </trkpt>
      <trkpt lat="48.60046" lon="1.95809">
        <ele>120.1</ele>
        <time>2022-05-12T08:16:48Z</time>
      </trkpt>
      <trkpt lat="48.60052" lon="1.9582">
        <ele>119.4</ele>
        <time>2022-05-12T08:16:55Z</time>
      </trkpt>
      <trkpt lat="48.60059" lon="1.95831">
        <ele>118.8</ele>
        <time>2022-05-12T08:17:02Z</time>
      </trkpt>
      <trkpt lat="48.60068" lon="1.9584">
        <ele>118.5</ele>
        <time>2022-05-12T08:17:09Z</time>
      </trkpt>
      <trkpt lat="48.60075" lon="1.95851">
        <ele>118.4</ele>
        <time>2022-05-12T08:17:15Z</time>
      </trkpt>
      <trkpt lat="48.60082" lon="1.95861">
        <ele>118.2</ele>
        <time>2022-05-12T08:17:20Z</time>
      </trkpt>
      <trkpt lat="48.60087" lon="1.95872">
        <ele>118.5</ele>
        <time>2022-05-12T08:17:26Z</time>
      </trkpt>
      <trkpt lat="48.60094" lon="1.95883">
        <ele>118.8</ele>
        <time>2022-05-12T08:17:32Z</time>
      </trkpt>
      <trkpt lat="48.60099" lon="1.95897">
        <ele>119.6</ele>
        <time>2022-05-12T08:17:39Z</time>
      </trkpt>
      <trkpt lat="48.60105" lon="1.9591">
        <ele>120.1</ele>
        <time>2022-05-12T08:17:45Z</time>
      </trkpt>
      <trkpt lat="48.60112" lon="1.9592">
        <ele>120.2</ele>
        <time>2022-05-12T08:17:52Z</time>
      </trkpt>
      <trkpt lat="48.60119" lon="1.95931">
        <ele>120.3</ele>
        <time>2022-05-12T08:18:00Z</time>
      </trkpt>
      <trkpt lat="48.60122" lon="1.95944">
        <ele>120.8</ele>
        <time>2022-05-12T08:18:07Z</time>
      </trkpt>
      <trkpt lat="48.60123" lon="1.95958">
        <ele>121.6</ele>
        <time>2022-05-12T08:18:13Z</time>
      </trkpt>
      <trkpt lat="48.60126" lon="1.95972">
        <ele>122.4</ele>
        <time>2022-05-12T08:18:19Z</time>
      </trkpt>
      <trkpt lat="48.60128" lon="1.95986">
        <ele>122.6</ele>
        <time>2022-05-12T08:18:26Z</time>
      </trkpt>
      <trkpt lat="48.6013" lon="1.96">
        <ele>122.7</ele>
        <time>2022-05-12T08:18:33Z</time>
      </trkpt>
      <trkpt lat="48.60135" lon="1.96013">
        <ele>122.2</ele>
        <time>2022-05-12T08:18:40Z</time>
      </trkpt>
      <trkpt lat="48.60144" lon="1.96023">
        <ele>122.3</ele>
        <time>2022-05-12T08:18:46Z</time>
      </trkpt>
      <trkpt lat="48.60153" lon="1.96017">
        <ele>123.2</ele>
        <time>2022-05-12T08:18:55Z</time>
      </trkpt>
      <trkpt lat="48.60162" lon="1.9601">
        <ele>123.8</ele>
        <time>2022-05-12T08:19:03Z</time>
      </trkpt>
      <trkpt lat="48.6017" lon="1.96003">
        <ele>124.5</ele>
        <time>2022-05-12T08:19:11Z</time>
      </trkpt>
      <trkpt lat="48.60177" lon="1.95993">
        <ele>124.3</ele>
        <time>2022-05-12T08:19:21Z</time>
      </trkpt>
      <trkpt lat="48.60184" lon="1.95982">
        <ele>123.6</ele>
        <time>2022-05-12T08:19:29Z</time>
      </trkpt>
      <trkpt lat="48.6019" lon="1.95971">
        <ele>122.5</ele>
        <time>2022-05-12T08:19:36Z</time>
      </trkpt>
      <trkpt lat="48.60196" lon="1.9596">
        <ele>122.2</ele>
        <time>2022-05-12T08:19:43Z</time>
      </trkpt>
      <trkpt lat="48.60203" lon="1.95951">
        <ele>121.3</ele>
        <time>2022-05-12T08:19:49Z</time>
      </trkpt>
      <trkpt lat="48.60208" lon="1.95939">
        <ele>119.9</ele>
        <time>2022-05-12T08:19:56Z</time>
      </trkpt>
      <trkpt lat="48.60213" lon="1.95928">
        <ele>118.5</ele>
        <time>2022-05-12T08:20:03Z</time>
      </trkpt>
      <trkpt lat="48.60219" lon="1.95916">
        <ele>117.1</ele>
        <time>2022-05-12T08:20:10Z</time>
      </trkpt>
      <trkpt lat="48.60226" lon="1.95906">
        <ele>116.1</ele>
        <time>2022-05-12T08:20:18Z</time>
      </trkpt>
      <trkpt lat="48.60233" lon="1.95895">
        <ele>115.1</ele>
        <time>2022-05-12T08:20:25Z</time>
      </trkpt>
      <trkpt lat="48.60235" lon="1.95908">
        <ele>115.9</ele>
        <time>2022-05-12T08:20:55Z</time>
      </trkpt>
      <trkpt lat="48.60232" lon="1.95923">
        <ele>117.3</ele>
        <time>2022-05-12T08:21:05Z</time>
      </trkpt>
      <trkpt lat="48.60232" lon="1.95936">
        <ele>118.8</ele>
        <time>2022-05-12T08:21:13Z</time>
      </trkpt>
      <trkpt lat="48.6023" lon="1.95951">
        <ele>120.6</ele>
        <time>2022-05-12T08:21:22Z</time>
      </trkpt>
      <trkpt lat="48.60225" lon="1.95963">
        <ele>122.5</ele>
        <time>2022-05-12T08:21:32Z</time>
      </trkpt>
      <trkpt lat="48.60222" lon="1.95977">
        <ele>124.7</ele>
        <time>2022-05-12T08:21:41Z</time>
      </trkpt>
      <trkpt lat="48.60223" lon="1.95992">
        <ele>126.8</ele>
        <time>2022-05-12T08:21:50Z</time>
      </trkpt>
      <trkpt lat="48.60226" lon="1.96005">
        <ele>128.4</ele>
        <time>2022-05-12T08:22:00Z</time>
      </trkpt>
      <trkpt lat="48.60227" lon="1.9602">
        <ele>130.4</ele>
        <time>2022-05-12T08:22:09Z</time>
      </trkpt>
      <trkpt lat="48.60223" lon="1.96033">
        <ele>132.4</ele>
        <time>2022-05-12T08:22:18Z</time>
      </trkpt>
      <trkpt lat="48.60222" lon="1.96047">
        <ele>134</ele>
        <time>2022-05-12T08:22:28Z</time>
      </trkpt>
      <trkpt lat="48.6022" lon="1.96061">
        <ele>135.4</ele>
        <time>2022-05-12T08:22:37Z</time>
      </trkpt>
      <trkpt lat="48.60216" lon="1.96074">
        <ele>136.5</ele>
        <time>2022-05-12T08:22:46Z</time>
      </trkpt>
      <trkpt lat="48.60217" lon="1.96089">
        <ele>138.2</ele>
        <time>2022-05-12T08:22:55Z</time>
      </trkpt>
      <trkpt lat="48.60222" lon="1.96101">
        <ele>139.8</ele>
        <time>2022-05-12T08:23:06Z</time>
      </trkpt>
      <trkpt lat="48.60229" lon="1.9611">
        <ele>140.4</ele>
        <time>2022-05-12T08:23:16Z</time>
      </trkpt>
      <trkpt lat="48.60234" lon="1.96123">
        <ele>141</ele>
        <time>2022-05-12T08:23:25Z</time>
      </trkpt>
      <trkpt lat="48.6024" lon="1.96133">
        <ele>141.3</ele>
        <time>2022-05-12T08:23:36Z</time>
      </trkpt>
      <trkpt lat="48.60244" lon="1.96147">
        <ele>141.6</ele>
        <time>2022-05-12T08:23:44Z</time>
      </trkpt>
      <trkpt lat="48.60245" lon="1.96161">
        <ele>141.9</ele>
        <time>2022-05-12T08:23:51Z</time>
      </trkpt>
      <trkpt lat="48.60247" lon="1.96175">
        <ele>142.2</ele>
        <time>2022-05-12T08:23:57Z</time>
      </trkpt>
      <trkpt lat="48.60253" lon="1.96186">
        <ele>142.7</ele>
        <time>2022-05-12T08:24:03Z</time>
      </trkpt>
      <trkpt lat="48.60258" lon="1.96198">
        <ele>142.9</ele>
        <time>2022-05-12T08:24:11Z</time>
      </trkpt>
      <trkpt lat="48.60263" lon="1.96212">
        <ele>142.7</ele>
        <time>2022-05-12T08:24:21Z</time>
      </trkpt>
      <trkpt lat="48.60268" lon="1.96224">
        <ele>142.6</ele>
        <time>2022-05-12T08:24:27Z</time>
      </trkpt>
      <trkpt lat="48.60274" lon="1.96235">
        <ele>142.5</ele>
        <time>2022-05-12T08:24:35Z</time>
      </trkpt>
      <trkpt lat="48.60279" lon="1.96248">
        <ele>142.1</ele>
        <time>2022-05-12T08:24:41Z</time>
      </trkpt>
      <trkpt lat="48.60284" lon="1.9626">
        <ele>141.9</ele>
        <time>2022-05-12T08:24:47Z</time>
      </trkpt>
      <trkpt lat="48.60288" lon="1.96272">
        <ele>141.6</ele>
        <time>2022-05-12T08:24:54Z</time>
      </trkpt>
      <trkpt lat="48.60292" lon="1.96287">
        <ele>141</ele>
        <time>2022-05-12T08:25:00Z</time>
      </trkpt>
      <trkpt lat="48.60298" lon="1.96299">
        <ele>140.4</ele>
        <time>2022-05-12T08:25:07Z</time>
      </trkpt>
      <trkpt lat="48.60302" lon="1.96313">
        <ele>140</ele>
        <time>2022-05-12T08:25:15Z</time>
      </trkpt>
      <trkpt lat="48.60304" lon="1.96327">
        <ele>140</ele>
        <time>2022-05-12T08:25:24Z</time>
      </trkpt>
      <trkpt lat="48.60304" lon="1.96341">
        <ele>139.9</ele>
        <time>2022-05-12T08:25:32Z</time>
      </trkpt>
      <trkpt lat="48.60304" lon="1.96355">
        <ele>139.9</ele>
        <time>2022-05-12T08:25:53Z</time>
      </trkpt>
      <trkpt lat="48.60297" lon="1.96366">
        <ele>139.4</ele>
        <time>2022-05-12T08:26:26Z</time>
      </trkpt>
      <trkpt lat="48.603" lon="1.96378">
        <ele>139.6</ele>
        <time>2022-05-12T08:29:07Z</time>
      </trkpt>
      <trkpt lat="48.60309" lon="1.96381">
        <ele>140.4</ele>
        <time>2022-05-12T08:29:17Z</time>
      </trkpt>
      <trkpt lat="48.60317" lon="1.96391">
        <ele>141.3</ele>
        <time>2022-05-12T08:29:27Z</time>
      </trkpt>
      <trkpt lat="48.60325" lon="1.96398">
        <ele>142.2</ele>
        <time>2022-05-12T08:29:37Z</time>
      </trkpt>
      <trkpt lat="48.60334" lon="1.96405">
        <ele>143</ele>
        <time>2022-05-12T08:29:46Z</time>
      </trkpt>
      <trkpt lat="48.60342" lon="1.96412">
        <ele>143.3</ele>
        <time>2022-05-12T08:29:53Z</time>
      </trkpt>
      <trkpt lat="48.6035" lon="1.96422">
        <ele>143.6</ele>
        <time>2022-05-12T08:30:02Z</time>
      </trkpt>
      <trkpt lat="48.60358" lon="1.96429">
        <ele>143.9</ele>
        <time>2022-05-12T08:30:08Z</time>
      </trkpt>
      <trkpt lat="48.60365" lon="1.96437">
        <ele>144</ele>
        <time>2022-05-12T08:30:15Z</time>
      </trkpt>
      <trkpt lat="48.60372" lon="1.96447">
        <ele>144</ele>
        <time>2022-05-12T08:30:23Z</time>
      </trkpt>
      <trkpt lat="48.6038" lon="1.96456">
        <ele>144</ele>
        <time>2022-05-12T08:30:30Z</time>
      </trkpt>
      <trkpt lat="48.60389" lon="1.96462">
        <ele>144</ele>
        <time>2022-05-12T08:30:37Z</time>
      </trkpt>
      <trkpt lat="48.60397" lon="1.96469">
        <ele>143.7</ele>
        <time>2022-05-12T08:30:43Z</time>
      </trkpt>
      <trkpt lat="48.60405" lon="1.96478">
        <ele>143.4</ele>
        <time>2022-05-12T08:30:50Z</time>
      </trkpt>
      <trkpt lat="48.60413" lon="1.96484">
        <ele>143.1</ele>
        <time>2022-05-12T08:30:57Z</time>
      </trkpt>
      <trkpt lat="48.60422" lon="1.96492">
        <ele>142.9</ele>
        <time>2022-05-12T08:31:05Z</time>
      </trkpt>
      <trkpt lat="48.6043" lon="1.96498">
        <ele>142.5</ele>
        <time>2022-05-12T08:31:12Z</time>
      </trkpt>
      <trkpt lat="48.60438" lon="1.96507">
        <ele>142.2</ele>
        <time>2022-05-12T08:31:19Z</time>
      </trkpt>
      <trkpt lat="48.60445" lon="1.96515">
        <ele>142</ele>
        <time>2022-05-12T08:31:26Z</time>
      </trkpt>
      <trkpt lat="48.60453" lon="1.96523">
        <ele>141.7</ele>
        <time>2022-05-12T08:31:33Z</time>
      </trkpt>
      <trkpt lat="48.60461" lon="1.9653">
        <ele>141.3</ele>
        <time>2022-05-12T08:31:40Z</time>
      </trkpt>
      <trkpt lat="48.6047" lon="1.96539">
        <ele>140.7</ele>
        <time>2022-05-12T08:31:47Z</time>
      </trkpt>
      <trkpt lat="48.60478" lon="1.96547">
        <ele>139.9</ele>
        <time>2022-05-12T08:31:54Z</time>
      </trkpt>
      <trkpt lat="48.60486" lon="1.96556">
        <ele>139</ele>
        <time>2022-05-12T08:32:01Z</time>
      </trkpt>
      <trkpt lat="48.60492" lon="1.96568">
        <ele>138.6</ele>
        <time>2022-05-12T08:32:08Z</time>
      </trkpt>
      <trkpt lat="48.60492" lon="1.96582">
        <ele>138.6</ele>
        <time>2022-05-12T08:32:15Z</time>
      </trkpt>
      <trkpt lat="48.60485" lon="1.96591">
        <ele>138.6</ele>
        <time>2022-05-12T08:32:22Z</time>
      </trkpt>
      <trkpt lat="48.60481" lon="1.96604">
        <ele>138.4</ele>
        <time>2022-05-12T08:32:31Z</time>
      </trkpt>
      <trkpt lat="48.60475" lon="1.96616">
        <ele>138.5</ele>
        <time>2022-05-12T08:32:39Z</time>
      </trkpt>
      <trkpt lat="48.60468" lon="1.96627">
        <ele>138.8</ele>
        <time>2022-05-12T08:32:47Z</time>
      </trkpt>
      <trkpt lat="48.60463" lon="1.96639">
        <ele>139</ele>
        <time>2022-05-12T08:32:54Z</time>
      </trkpt>
      <trkpt lat="48.60458" lon="1.96651">
        <ele>139.3</ele>
        <time>2022-05-12T08:33:01Z</time>
      </trkpt>
      <trkpt lat="48.60454" lon="1.96663">
        <ele>139.4</ele>
        <time>2022-05-12T08:33:09Z</time>
      </trkpt>
      <trkpt lat="48.60448" lon="1.96675">
        <ele>140</ele>
        <time>2022-05-12T08:33:16Z</time>
      </trkpt>
      <trkpt lat="48.60441" lon="1.96685">
        <ele>140.8</ele>
        <time>2022-05-12T08:33:23Z</time>
      </trkpt>
      <trkpt lat="48.60436" lon="1.96699">
        <ele>141.3</ele>
        <time>2022-05-12T08:33:31Z</time>
      </trkpt>
      <trkpt lat="48.60431" lon="1.9671">
        <ele>141.8</ele>
        <time>2022-05-12T08:33:37Z</time>
      </trkpt>
      <trkpt lat="48.60425" lon="1.96721">
        <ele>142.4</ele>
        <time>2022-05-12T08:33:43Z</time>
      </trkpt>
      <trkpt lat="48.6042" lon="1.96734">
        <ele>142.8</ele>
        <time>2022-05-12T08:33:49Z</time>
      </trkpt>
      <trkpt lat="48.60414" lon="1.96745">
        <ele>143</ele>
        <time>2022-05-12T08:33:56Z</time>
      </trkpt>
      <trkpt lat="48.60409" lon="1.96758">
        <ele>142.9</ele>
        <time>2022-05-12T08:34:03Z</time>
      </trkpt>
      <trkpt lat="48.60406" lon="1.96773">
        <ele>142.7</ele>
        <time>2022-05-12T08:34:09Z</time>
      </trkpt>
      <trkpt lat="48.60411" lon="1.96784">
        <ele>142.6</ele>
        <time>2022-05-12T08:34:14Z</time>
      </trkpt>
      <trkpt lat="48.60419" lon="1.96792">
        <ele>142.4</ele>
        <time>2022-05-12T08:34:20Z</time>
      </trkpt>
      <trkpt lat="48.60427" lon="1.968">
        <ele>141.8</ele>
        <time>2022-05-12T08:34:26Z</time>
      </trkpt>
      <trkpt lat="48.60435" lon="1.96806">
        <ele>141.3</ele>
        <time>2022-05-12T08:34:32Z</time>
      </trkpt>
      <trkpt lat="48.60442" lon="1.96815">
        <ele>141.1</ele>
        <time>2022-05-12T08:34:38Z</time>
      </trkpt>
      <trkpt lat="48.60451" lon="1.96821">
        <ele>140.2</ele>
        <time>2022-05-12T08:34:45Z</time>
      </trkpt>
      <trkpt lat="48.60459" lon="1.9683">
        <ele>139.4</ele>
        <time>2022-05-12T08:34:53Z</time>
      </trkpt>
      <trkpt lat="48.60465" lon="1.96843">
        <ele>138.7</ele>
        <time>2022-05-12T08:35:01Z</time>
      </trkpt>
      <trkpt lat="48.60471" lon="1.96854">
        <ele>138.1</ele>
        <time>2022-05-12T08:35:09Z</time>
      </trkpt>
      <trkpt lat="48.60479" lon="1.96861">
        <ele>137</ele>
        <time>2022-05-12T08:35:17Z</time>
      </trkpt>
      <trkpt lat="48.60489" lon="1.96868">
        <ele>135.6</ele>
        <time>2022-05-12T08:35:24Z</time>
      </trkpt>
      <trkpt lat="48.60497" lon="1.96874">
        <ele>134.4</ele>
        <time>2022-05-12T08:35:32Z</time>
      </trkpt>
      <trkpt lat="48.60504" lon="1.96884">
        <ele>133.4</ele>
        <time>2022-05-12T08:35:41Z</time>
      </trkpt>
      <trkpt lat="48.60509" lon="1.96896">
        <ele>132.4</ele>
        <time>2022-05-12T08:35:49Z</time>
      </trkpt>
      <trkpt lat="48.60514" lon="1.96907">
        <ele>131.5</ele>
        <time>2022-05-12T08:35:57Z</time>
      </trkpt>
      <trkpt lat="48.60522" lon="1.96915">
        <ele>130</ele>
        <time>2022-05-12T08:36:04Z</time>
      </trkpt>
      <trkpt lat="48.60531" lon="1.96922">
        <ele>128.6</ele>
        <time>2022-05-12T08:36:11Z</time>
      </trkpt>
      <trkpt lat="48.6054" lon="1.96926">
        <ele>127.3</ele>
        <time>2022-05-12T08:36:20Z</time>
      </trkpt>
      <trkpt lat="48.60549" lon="1.9693">
        <ele>125.9</ele>
        <time>2022-05-12T08:36:29Z</time>
      </trkpt>
      <trkpt lat="48.60559" lon="1.96934">
        <ele>124.6</ele>
        <time>2022-05-12T08:36:39Z</time>
      </trkpt>
      <trkpt lat="48.60567" lon="1.96942">
        <ele>123.4</ele>
        <time>2022-05-12T08:36:47Z</time>
      </trkpt>
      <trkpt lat="48.60575" lon="1.96948">
        <ele>122.1</ele>
        <time>2022-05-12T08:36:54Z</time>
      </trkpt>
      <trkpt lat="48.60584" lon="1.96955">
        <ele>120.5</ele>
        <time>2022-05-12T08:37:05Z</time>
      </trkpt>
      <trkpt lat="48.60593" lon="1.96962">
        <ele>119.6</ele>
        <time>2022-05-12T08:37:12Z</time>
      </trkpt>
      <trkpt lat="48.60601" lon="1.9697">
        <ele>118.8</ele>
        <time>2022-05-12T08:37:21Z</time>
      </trkpt>
      <trkpt lat="48.60609" lon="1.96978">
        <ele>117.9</ele>
        <time>2022-05-12T08:37:29Z</time>
      </trkpt>
      <trkpt lat="48.60618" lon="1.96986">
        <ele>117.1</ele>
        <time>2022-05-12T08:37:37Z</time>
      </trkpt>
      <trkpt lat="48.60623" lon="1.96998">
        <ele>116.6</ele>
        <time>2022-05-12T08:37:44Z</time>
      </trkpt>
      <trkpt lat="48.60629" lon="1.97008">
        <ele>116.2</ele>
        <time>2022-05-12T08:37:50Z</time>
      </trkpt>
      <trkpt lat="48.60637" lon="1.97017">
        <ele>115.5</ele>
        <time>2022-05-12T08:37:57Z</time>
      </trkpt>
      <trkpt lat="48.60646" lon="1.97024">
        <ele>114.9</ele>
        <time>2022-05-12T08:38:05Z</time>
      </trkpt>
      <trkpt lat="48.60655" lon="1.97021">
        <ele>114.5</ele>
        <time>2022-05-12T08:38:21Z</time>
      </trkpt>
      <trkpt lat="48.60657" lon="1.97007">
        <ele>114.6</ele>
        <time>2022-05-12T08:38:32Z</time>
      </trkpt>
      <trkpt lat="48.6066" lon="1.96993">
        <ele>114.7</ele>
        <time>2022-05-12T08:38:42Z</time>
      </trkpt>
      <trkpt lat="48.60665" lon="1.9698">
        <ele>114.8</ele>
        <time>2022-05-12T08:38:51Z</time>
      </trkpt>
      <trkpt lat="48.6067" lon="1.96968">
        <ele>114.8</ele>
        <time>2022-05-12T08:38:58Z</time>
      </trkpt>
      <trkpt lat="48.60676" lon="1.96957">
        <ele>114.3</ele>
        <time>2022-05-12T08:39:07Z</time>
      </trkpt>
      <trkpt lat="48.6068" lon="1.96943">
        <ele>114</ele>
        <time>2022-05-12T08:39:15Z</time>
      </trkpt>
      <trkpt lat="48.60687" lon="1.96931">
        <ele>113.9</ele>
        <time>2022-05-12T08:39:20Z</time>
      </trkpt>
      <trkpt lat="48.60692" lon="1.96918">
        <ele>114</ele>
        <time>2022-05-12T08:39:26Z</time>
      </trkpt>
      <trkpt lat="48.60693" lon="1.96903">
        <ele>114</ele>
        <time>2022-05-12T08:39:34Z</time>
      </trkpt>
      <trkpt lat="48.60697" lon="1.96891">
        <ele>113.9</ele>
        <time>2022-05-12T08:39:40Z</time>
      </trkpt>
      <trkpt lat="48.60701" lon="1.96876">
        <ele>113.8</ele>
        <time>2022-05-12T08:39:49Z</time>
      </trkpt>
      <trkpt lat="48.60705" lon="1.96862">
        <ele>113.6</ele>
        <time>2022-05-12T08:39:56Z</time>
      </trkpt>
      <trkpt lat="48.60707" lon="1.96849">
        <ele>113.6</ele>
        <time>2022-05-12T08:40:02Z</time>
      </trkpt>
      <trkpt lat="48.60711" lon="1.96834">
        <ele>113.4</ele>
        <time>2022-05-12T08:40:08Z</time>
      </trkpt>
      <trkpt lat="48.60714" lon="1.96821">
        <ele>113.7</ele>
        <time>2022-05-12T08:40:16Z</time>
      </trkpt>
      <trkpt lat="48.60715" lon="1.96807">
        <ele>114.2</ele>
        <time>2022-05-12T08:40:24Z</time>
      </trkpt>
      <trkpt lat="48.6072" lon="1.96793">
        <ele>114.1</ele>
        <time>2022-05-12T08:40:31Z</time>
      </trkpt>
      <trkpt lat="48.60719" lon="1.96778">
        <ele>114.1</ele>
        <time>2022-05-12T08:40:40Z</time>
      </trkpt>
      <trkpt lat="48.60714" lon="1.96764">
        <ele>114.3</ele>
        <time>2022-05-12T08:40:47Z</time>
      </trkpt>
      <trkpt lat="48.6071" lon="1.96751">
        <ele>114.4</ele>
        <time>2022-05-12T08:40:52Z</time>
      </trkpt>
      <trkpt lat="48.60711" lon="1.96736">
        <ele>114.9</ele>
        <time>2022-05-12T08:40:59Z</time>
      </trkpt>
      <trkpt lat="48.60712" lon="1.96722">
        <ele>115.4</ele>
        <time>2022-05-12T08:41:04Z</time>
      </trkpt>
      <trkpt lat="48.60708" lon="1.9671">
        <ele>115.5</ele>
        <time>2022-05-12T08:41:10Z</time>
      </trkpt>
      <trkpt lat="48.60708" lon="1.96696">
        <ele>115.5</ele>
        <time>2022-05-12T08:41:17Z</time>
      </trkpt>
      <trkpt lat="48.60709" lon="1.96681">
        <ele>115.9</ele>
        <time>2022-05-12T08:41:23Z</time>
      </trkpt>
      <trkpt lat="48.60706" lon="1.96667">
        <ele>116.6</ele>
        <time>2022-05-12T08:41:29Z</time>
      </trkpt>
      <trkpt lat="48.60709" lon="1.96653">
        <ele>116.7</ele>
        <time>2022-05-12T08:41:36Z</time>
      </trkpt>
      <trkpt lat="48.6071" lon="1.96638">
        <ele>116.9</ele>
        <time>2022-05-12T08:41:42Z</time>
      </trkpt>
      <trkpt lat="48.6071" lon="1.96622">
        <ele>117.2</ele>
        <time>2022-05-12T08:41:48Z</time>
      </trkpt>
      <trkpt lat="48.60709" lon="1.96608">
        <ele>117.5</ele>
        <time>2022-05-12T08:41:54Z</time>
      </trkpt>
      <trkpt lat="48.60706" lon="1.96593">
        <ele>117.6</ele>
        <time>2022-05-12T08:42:02Z</time>
      </trkpt>
      <trkpt lat="48.60703" lon="1.96579">
        <ele>117.8</ele>
        <time>2022-05-12T08:42:09Z</time>
      </trkpt>
      <trkpt lat="48.60702" lon="1.96565">
        <ele>118.2</ele>
        <time>2022-05-12T08:42:16Z</time>
      </trkpt>
      <trkpt lat="48.60704" lon="1.96551">
        <ele>118.4</ele>
        <time>2022-05-12T08:42:23Z</time>
      </trkpt>
      <trkpt lat="48.60703" lon="1.96536">
        <ele>118.6</ele>
        <time>2022-05-12T08:42:30Z</time>
      </trkpt>
      <trkpt lat="48.60706" lon="1.9652">
        <ele>118.6</ele>
        <time>2022-05-12T08:42:37Z</time>
      </trkpt>
      <trkpt lat="48.60707" lon="1.96505">
        <ele>118.6</ele>
        <time>2022-05-12T08:42:46Z</time>
      </trkpt>
      <trkpt lat="48.60708" lon="1.9649">
        <ele>118.5</ele>
        <time>2022-05-12T08:42:54Z</time>
      </trkpt>
      <trkpt lat="48.60712" lon="1.96476">
        <ele>118.4</ele>
        <time>2022-05-12T08:43:01Z</time>
      </trkpt>
      <trkpt lat="48.60716" lon="1.96463">
        <ele>118.2</ele>
        <time>2022-05-12T08:43:07Z</time>
      </trkpt>
      <trkpt lat="48.60714" lon="1.96448">
        <ele>118.3</ele>
        <time>2022-05-12T08:43:13Z</time>
      </trkpt>
      <trkpt lat="48.60711" lon="1.96433">
        <ele>118.6</ele>
        <time>2022-05-12T08:43:19Z</time>
      </trkpt>
      <trkpt lat="48.60706" lon="1.96421">
        <ele>119.1</ele>
        <time>2022-05-12T08:43:25Z</time>
      </trkpt>
      <trkpt lat="48.60704" lon="1.96406">
        <ele>119.4</ele>
        <time>2022-05-12T08:43:33Z</time>
      </trkpt>
      <trkpt lat="48.60698" lon="1.96397">
        <ele>119.9</ele>
        <time>2022-05-12T08:43:39Z</time>
      </trkpt>
      <trkpt lat="48.60694" lon="1.96383">
        <ele>120</ele>
        <time>2022-05-12T08:43:46Z</time>
      </trkpt>
      <trkpt lat="48.60694" lon="1.96368">
        <ele>120</ele>
        <time>2022-05-12T08:43:53Z</time>
      </trkpt>
      <trkpt lat="48.60693" lon="1.96352">
        <ele>120.1</ele>
        <time>2022-05-12T08:44:00Z</time>
      </trkpt>
      <trkpt lat="48.6069" lon="1.96337">
        <ele>120.3</ele>
        <time>2022-05-12T08:44:06Z</time>
      </trkpt>
      <trkpt lat="48.60686" lon="1.96324">
        <ele>120.9</ele>
        <time>2022-05-12T08:44:13Z</time>
      </trkpt>
      <trkpt lat="48.6068" lon="1.96311">
        <ele>121.4</ele>
        <time>2022-05-12T08:44:22Z</time>
      </trkpt>
      <trkpt lat="48.60678" lon="1.96298">
        <ele>121.6</ele>
        <time>2022-05-12T08:44:30Z</time>
      </trkpt>
      <trkpt lat="48.60673" lon="1.96286">
        <ele>121.8</ele>
        <time>2022-05-12T08:44:37Z</time>
      </trkpt>
      <trkpt lat="48.60667" lon="1.96272">
        <ele>122</ele>
        <time>2022-05-12T08:44:44Z</time>
      </trkpt>
      <trkpt lat="48.60661" lon="1.96261">
        <ele>122.4</ele>
        <time>2022-05-12T08:44:52Z</time>
      </trkpt>
      <trkpt lat="48.6066" lon="1.96246">
        <ele>122.5</ele>
        <time>2022-05-12T08:45:00Z</time>
      </trkpt>
      <trkpt lat="48.60664" lon="1.96233">
        <ele>122.3</ele>
        <time>2022-05-12T08:45:07Z</time>
      </trkpt>
      <trkpt lat="48.60668" lon="1.9622">
        <ele>121.9</ele>
        <time>2022-05-12T08:45:14Z</time>
      </trkpt>
      <trkpt lat="48.60671" lon="1.96205">
        <ele>121.7</ele>
        <time>2022-05-12T08:45:22Z</time>
      </trkpt>
      <trkpt lat="48.60674" lon="1.96191">
        <ele>121.3</ele>
        <time>2022-05-12T08:45:31Z</time>
      </trkpt>
      <trkpt lat="48.60681" lon="1.9618">
        <ele>120.5</ele>
        <time>2022-05-12T08:45:39Z</time>
      </trkpt>
      <trkpt lat="48.60687" lon="1.96167">
        <ele>119.6</ele>
        <time>2022-05-12T08:45:46Z</time>
      </trkpt>
      <trkpt lat="48.60692" lon="1.96156">
        <ele>118.4</ele>
        <time>2022-05-12T08:45:52Z</time>
      </trkpt>
      <trkpt lat="48.60697" lon="1.96142">
        <ele>117.2</ele>
        <time>2022-05-12T08:46:00Z</time>
      </trkpt>
      <trkpt lat="48.60701" lon="1.96129">
        <ele>116.6</ele>
        <time>2022-05-12T08:46:08Z</time>
      </trkpt>
      <trkpt lat="48.60708" lon="1.96118">
        <ele>115.9</ele>
        <time>2022-05-12T08:46:16Z</time>
      </trkpt>
      <trkpt lat="48.60711" lon="1.96105">
        <ele>115</ele>
        <time>2022-05-12T08:46:25Z</time>
      </trkpt>
      <trkpt lat="48.60715" lon="1.96091">
        <ele>113.8</ele>
        <time>2022-05-12T08:46:34Z</time>
      </trkpt>
      <trkpt lat="48.60719" lon="1.96078">
        <ele>112.9</ele>
        <time>2022-05-12T08:46:44Z</time>
      </trkpt>
      <trkpt lat="48.60717" lon="1.96064">
        <ele>112.4</ele>
        <time>2022-05-12T08:46:51Z</time>
      </trkpt>
      <trkpt lat="48.60721" lon="1.96051">
        <ele>111.7</ele>
        <time>2022-05-12T08:47:01Z</time>
      </trkpt>
      <trkpt lat="48.60718" lon="1.96038">
        <ele>110.7</ele>
        <time>2022-05-12T08:47:09Z</time>
      </trkpt>
      <trkpt lat="48.60716" lon="1.96024">
        <ele>109.9</ele>
        <time>2022-05-12T08:47:19Z</time>
      </trkpt>
      <trkpt lat="48.60712" lon="1.96011">
        <ele>109.4</ele>
        <time>2022-05-12T08:47:32Z</time>
      </trkpt>
      <trkpt lat="48.60706" lon="1.95999">
        <ele>109</ele>
        <time>2022-05-12T08:47:41Z</time>
      </trkpt>
      <trkpt lat="48.60702" lon="1.95987">
        <ele>108.2</ele>
        <time>2022-05-12T08:47:48Z</time>
      </trkpt>
      <trkpt lat="48.60698" lon="1.95974">
        <ele>107.2</ele>
        <time>2022-05-12T08:47:54Z</time>
      </trkpt>
      <trkpt lat="48.6069" lon="1.95964">
        <ele>107</ele>
        <time>2022-05-12T08:48:01Z</time>
      </trkpt>
      <trkpt lat="48.60681" lon="1.95955">
        <ele>107</ele>
        <time>2022-05-12T08:48:07Z</time>
      </trkpt>
      <trkpt lat="48.60675" lon="1.95944">
        <ele>107</ele>
        <time>2022-05-12T08:48:13Z</time>
      </trkpt>
      <trkpt lat="48.60674" lon="1.9593">
        <ele>107</ele>
        <time>2022-05-12T08:48:22Z</time>
      </trkpt>
      <trkpt lat="48.60674" lon="1.95914">
        <ele>107</ele>
        <time>2022-05-12T08:48:31Z</time>
      </trkpt>
      <trkpt lat="48.60678" lon="1.959">
        <ele>107</ele>
        <time>2022-05-12T08:48:39Z</time>
      </trkpt>
      <trkpt lat="48.60685" lon="1.9589">
        <ele>107</ele>
        <time>2022-05-12T08:48:47Z</time>
      </trkpt>
      <trkpt lat="48.60691" lon="1.95878">
        <ele>107</ele>
        <time>2022-05-12T08:48:55Z</time>
      </trkpt>
      <trkpt lat="48.60692" lon="1.95862">
        <ele>107</ele>
        <time>2022-05-12T08:49:03Z</time>
      </trkpt>
      <trkpt lat="48.60692" lon="1.95849">
        <ele>107</ele>
        <time>2022-05-12T08:49:10Z</time>
      </trkpt>
      <trkpt lat="48.60693" lon="1.95834">
        <ele>107</ele>
        <time>2022-05-12T08:49:16Z</time>
      </trkpt>
      <trkpt lat="48.60695" lon="1.95819">
        <ele>107</ele>
        <time>2022-05-12T08:49:22Z</time>
      </trkpt>
      <trkpt lat="48.60699" lon="1.95806">
        <ele>107</ele>
        <time>2022-05-12T08:49:28Z</time>
      </trkpt>
      <trkpt lat="48.60702" lon="1.95792">
        <ele>107.3</ele>
        <time>2022-05-12T08:49:36Z</time>
      </trkpt>
      <trkpt lat="48.60697" lon="1.9578">
        <ele>107.8</ele>
        <time>2022-05-12T08:49:43Z</time>
      </trkpt>
      <trkpt lat="48.60693" lon="1.95767">
        <ele>108</ele>
        <time>2022-05-12T08:49:50Z</time>
      </trkpt>
      <trkpt lat="48.60692" lon="1.95752">
        <ele>108</ele>
        <time>2022-05-12T08:49:56Z</time>
      </trkpt>
      <trkpt lat="48.60691" lon="1.95737">
        <ele>108</ele>
        <time>2022-05-12T08:50:03Z</time>
      </trkpt>
      <trkpt lat="48.60691" lon="1.95721">
        <ele>108</ele>
        <time>2022-05-12T08:50:10Z</time>
      </trkpt>
      <trkpt lat="48.60692" lon="1.95707">
        <ele>108</ele>
        <time>2022-05-12T08:50:16Z</time>
      </trkpt>
      <trkpt lat="48.60689" lon="1.95694">
        <ele>108</ele>
        <time>2022-05-12T08:50:22Z</time>
      </trkpt>
      <trkpt lat="48.60686" lon="1.9568">
        <ele>108</ele>
        <time>2022-05-12T08:50:30Z</time>
      </trkpt>
      <trkpt lat="48.6068" lon="1.95671">
        <ele>108</ele>
        <time>2022-05-12T08:50:40Z</time>
      </trkpt>
      <trkpt lat="48.60672" lon="1.95663">
        <ele>108</ele>
        <time>2022-05-12T08:50:48Z</time>
      </trkpt>
      <trkpt lat="48.60662" lon="1.95655">
        <ele>108</ele>
        <time>2022-05-12T08:50:57Z</time>
      </trkpt>
      <trkpt lat="48.60653" lon="1.95649">
        <ele>108</ele>
        <time>2022-05-12T08:51:04Z</time>
      </trkpt>
      <trkpt lat="48.60644" lon="1.95643">
        <ele>108</ele>
        <time>2022-05-12T08:51:11Z</time>
      </trkpt>
      <trkpt lat="48.60635" lon="1.95637">
        <ele>108</ele>
        <time>2022-05-12T08:51:19Z</time>
      </trkpt>
      <trkpt lat="48.60629" lon="1.95625">
        <ele>108</ele>
        <time>2022-05-12T08:51:26Z</time>
      </trkpt>
      <trkpt lat="48.60623" lon="1.95614">
        <ele>108</ele>
        <time>2022-05-12T08:51:32Z</time>
      </trkpt>
      <trkpt lat="48.6062" lon="1.95601">
        <ele>108</ele>
        <time>2022-05-12T08:51:38Z</time>
      </trkpt>
      <trkpt lat="48.60617" lon="1.95588">
        <ele>108</ele>
        <time>2022-05-12T08:51:47Z</time>
      </trkpt>
      <trkpt lat="48.60613" lon="1.95574">
        <ele>108</ele>
        <time>2022-05-12T08:51:56Z</time>
      </trkpt>
      <trkpt lat="48.60611" lon="1.9556">
        <ele>108</ele>
        <time>2022-05-12T08:52:04Z</time>
      </trkpt>
      <trkpt lat="48.60612" lon="1.95544">
        <ele>108.4</ele>
        <time>2022-05-12T08:52:11Z</time>
      </trkpt>
      <trkpt lat="48.60607" lon="1.95531">
        <ele>108.9</ele>
        <time>2022-05-12T08:52:18Z</time>
      </trkpt>
      <trkpt lat="48.60604" lon="1.95516">
        <ele>109</ele>
        <time>2022-05-12T08:52:25Z</time>
      </trkpt>
      <trkpt lat="48.60606" lon="1.95502">
        <ele>109</ele>
        <time>2022-05-12T08:52:32Z</time>
      </trkpt>
      <trkpt lat="48.60604" lon="1.95488">
        <ele>109</ele>
        <time>2022-05-12T08:52:39Z</time>
      </trkpt>
      <trkpt lat="48.60598" lon="1.95477">
        <ele>109</ele>
        <time>2022-05-12T08:52:46Z</time>
      </trkpt>
      <trkpt lat="48.60594" lon="1.95463">
        <ele>109</ele>
        <time>2022-05-12T08:52:53Z</time>
      </trkpt>
      <trkpt lat="48.6059" lon="1.9545">
        <ele>109</ele>
        <time>2022-05-12T08:52:58Z</time>
      </trkpt>
      <trkpt lat="48.60589" lon="1.95435">
        <ele>109</ele>
        <time>2022-05-12T08:53:04Z</time>
      </trkpt>
      <trkpt lat="48.60591" lon="1.95421">
        <ele>109</ele>
        <time>2022-05-12T08:53:10Z</time>
      </trkpt>
      <trkpt lat="48.60592" lon="1.95406">
        <ele>109</ele>
        <time>2022-05-12T08:53:17Z</time>
      </trkpt>
      <trkpt lat="48.6059" lon="1.95393">
        <ele>109</ele>
        <time>2022-05-12T08:53:23Z</time>
      </trkpt>
      <trkpt lat="48.60584" lon="1.9538">
        <ele>109</ele>
        <time>2022-05-12T08:53:31Z</time>
      </trkpt>
      <trkpt lat="48.60582" lon="1.95366">
        <ele>109</ele>
        <time>2022-05-12T08:53:38Z</time>
      </trkpt>
      <trkpt lat="48.60582" lon="1.95352">
        <ele>109.4</ele>
        <time>2022-05-12T08:53:44Z</time>
      </trkpt>
      <trkpt lat="48.60578" lon="1.95338">
        <ele>109.9</ele>
        <time>2022-05-12T08:53:50Z</time>
      </trkpt>
      <trkpt lat="48.60578" lon="1.95322">
        <ele>110</ele>
        <time>2022-05-12T08:53:55Z</time>
      </trkpt>
      <trkpt lat="48.60576" lon="1.95308">
        <ele>110</ele>
        <time>2022-05-12T08:54:01Z</time>
      </trkpt>
      <trkpt lat="48.60574" lon="1.95295">
        <ele>110.1</ele>
        <time>2022-05-12T08:54:09Z</time>
      </trkpt>
      <trkpt lat="48.60574" lon="1.9528">
        <ele>110.3</ele>
        <time>2022-05-12T08:54:17Z</time>
      </trkpt>
      <trkpt lat="48.60576" lon="1.95265">
        <ele>110.6</ele>
        <time>2022-05-12T08:54:23Z</time>
      </trkpt>
      <trkpt lat="48.60574" lon="1.95252">
        <ele>111</ele>
        <time>2022-05-12T08:54:31Z</time>
      </trkpt>
      <trkpt lat="48.60573" lon="1.95237">
        <ele>111</ele>
        <time>2022-05-12T08:54:38Z</time>
      </trkpt>
      <trkpt lat="48.60569" lon="1.95224">
        <ele>111</ele>
        <time>2022-05-12T08:54:48Z</time>
      </trkpt>
      <trkpt lat="48.60568" lon="1.9521">
        <ele>111</ele>
        <time>2022-05-12T08:55:03Z</time>
      </trkpt>
      <trkpt lat="48.60571" lon="1.95197">
        <ele>111</ele>
        <time>2022-05-12T08:55:12Z</time>
      </trkpt>
      <trkpt lat="48.60572" lon="1.95182">
        <ele>111</ele>
        <time>2022-05-12T08:55:22Z</time>
      </trkpt>
      <trkpt lat="48.60574" lon="1.95168">
        <ele>111</ele>
        <time>2022-05-12T08:55:29Z</time>
      </trkpt>
      <trkpt lat="48.60578" lon="1.95154">
        <ele>111</ele>
        <time>2022-05-12T08:55:37Z</time>
      </trkpt>
      <trkpt lat="48.60584" lon="1.95143">
        <ele>111</ele>
        <time>2022-05-12T08:55:45Z</time>
      </trkpt>
      <trkpt lat="48.60591" lon="1.95131">
        <ele>111</ele>
        <time>2022-05-12T08:55:53Z</time>
      </trkpt>
      <trkpt lat="48.60595" lon="1.95119">
        <ele>111</ele>
        <time>2022-05-12T08:56:01Z</time>
      </trkpt>
      <trkpt lat="48.60601" lon="1.95107">
        <ele>111</ele>
        <time>2022-05-12T08:56:08Z</time>
      </trkpt>
      <trkpt lat="48.60603" lon="1.95094">
        <ele>111</ele>
        <time>2022-05-12T08:56:20Z</time>
      </trkpt>
      <trkpt lat="48.6061" lon="1.95084">
        <ele>111</ele>
        <time>2022-05-12T08:56:25Z</time>
      </trkpt>
      <trkpt lat="48.60616" lon="1.95072">
        <ele>111</ele>
        <time>2022-05-12T08:56:33Z</time>
      </trkpt>
      <trkpt lat="48.60623" lon="1.95063">
        <ele>111</ele>
        <time>2022-05-12T08:56:38Z</time>
      </trkpt>
      <trkpt lat="48.6063" lon="1.9505">
        <ele>111</ele>
        <time>2022-05-12T08:56:43Z</time>
      </trkpt>
      <trkpt lat="48.60633" lon="1.95036">
        <ele>111</ele>
        <time>2022-05-12T08:56:51Z</time>
      </trkpt>
      <trkpt lat="48.60639" lon="1.95024">
        <ele>111</ele>
        <time>2022-05-12T08:56:58Z</time>
      </trkpt>
      <trkpt lat="48.60645" lon="1.95012">
        <ele>111</ele>
        <time>2022-05-12T08:57:05Z</time>
      </trkpt>
      <trkpt lat="48.60652" lon="1.95001">
        <ele>111</ele>
        <time>2022-05-12T08:57:11Z</time>
      </trkpt>
      <trkpt lat="48.60659" lon="1.94989">
        <ele>111</ele>
        <time>2022-05-12T08:57:18Z</time>
      </trkpt>
      <trkpt lat="48.60665" lon="1.94978">
        <ele>111</ele>
        <time>2022-05-12T08:57:30Z</time>
      </trkpt>
      <trkpt lat="48.60672" lon="1.94966">
        <ele>111</ele>
        <time>2022-05-12T08:57:38Z</time>
      </trkpt>
      <trkpt lat="48.60679" lon="1.94957">
        <ele>111</ele>
        <time>2022-05-12T08:57:44Z</time>
      </trkpt>
      <trkpt lat="48.60686" lon="1.94947">
        <ele>111</ele>
        <time>2022-05-12T08:57:52Z</time>
      </trkpt>
      <trkpt lat="48.60694" lon="1.9494">
        <ele>111.1</ele>
        <time>2022-05-12T08:58:02Z</time>
      </trkpt>
      <trkpt lat="48.60702" lon="1.94933">
        <ele>111.4</ele>
        <time>2022-05-12T08:58:09Z</time>
      </trkpt>
      <trkpt lat="48.6071" lon="1.94927">
        <ele>111.6</ele>
        <time>2022-05-12T08:58:19Z</time>
      </trkpt>
      <trkpt lat="48.60718" lon="1.94921">
        <ele>111.9</ele>
        <time>2022-05-12T08:58:32Z</time>
      </trkpt>
      <trkpt lat="48.60727" lon="1.94915">
        <ele>112</ele>
        <time>2022-05-12T08:58:40Z</time>
      </trkpt>
      <trkpt lat="48.60736" lon="1.9491">
        <ele>112</ele>
        <time>2022-05-12T08:58:47Z</time>
      </trkpt>
      <trkpt lat="48.60746" lon="1.94905">
        <ele>112</ele>
        <time>2022-05-12T08:58:54Z</time>
      </trkpt>
      <trkpt lat="48.60756" lon="1.94899">
        <ele>111.9</ele>
        <time>2022-05-12T08:59:00Z</time>
      </trkpt>
      <trkpt lat="48.60764" lon="1.94892">
        <ele>111.9</ele>
        <time>2022-05-12T08:59:07Z</time>
      </trkpt>
      <trkpt lat="48.60773" lon="1.94885">
        <ele>112</ele>
        <time>2022-05-12T08:59:13Z</time>
      </trkpt>
      <trkpt lat="48.60782" lon="1.9488">
        <ele>111.8</ele>
        <time>2022-05-12T08:59:19Z</time>
      </trkpt>
      <trkpt lat="48.60791" lon="1.94873">
        <ele>111.5</ele>
        <time>2022-05-12T08:59:26Z</time>
      </trkpt>
      <trkpt lat="48.608" lon="1.94866">
        <ele>111.2</ele>
        <time>2022-05-12T08:59:32Z</time>
      </trkpt>
      <trkpt lat="48.6081" lon="1.9486">
        <ele>110.9</ele>
        <time>2022-05-12T08:59:37Z</time>
      </trkpt>
      <trkpt lat="48.60818" lon="1.94853">
        <ele>110.7</ele>
        <time>2022-05-12T08:59:47Z</time>
      </trkpt>
      <trkpt lat="48.60827" lon="1.94844">
        <ele>110.7</ele>
        <time>2022-05-12T08:59:55Z</time>
      </trkpt>
      <trkpt lat="48.60836" lon="1.94839">
        <ele>110.7</ele>
        <time>2022-05-12T09:00:02Z</time>
      </trkpt>
      <trkpt lat="48.60846" lon="1.94838">
        <ele>110.4</ele>
        <time>2022-05-12T09:00:09Z</time>
      </trkpt>
      <trkpt lat="48.60855" lon="1.94833">
        <ele>110.2</ele>
        <time>2022-05-12T09:00:17Z</time>
      </trkpt>
      <trkpt lat="48.60865" lon="1.94829">
        <ele>110</ele>
        <time>2022-05-12T09:00:25Z</time>
      </trkpt>
      <trkpt lat="48.60873" lon="1.94825">
        <ele>110</ele>
        <time>2022-05-12T09:00:32Z</time>
      </trkpt>
      <trkpt lat="48.60883" lon="1.9482">
        <ele>110</ele>
        <time>2022-05-12T09:00:39Z</time>
      </trkpt>
      <trkpt lat="48.60892" lon="1.94819">
        <ele>110.1</ele>
        <time>2022-05-12T09:00:52Z</time>
      </trkpt>
      <trkpt lat="48.60902" lon="1.94819">
        <ele>110.2</ele>
        <time>2022-05-12T09:00:58Z</time>
      </trkpt>
      <trkpt lat="48.60911" lon="1.94815">
        <ele>110.5</ele>
        <time>2022-05-12T09:01:04Z</time>
      </trkpt>
      <trkpt lat="48.60921" lon="1.94815">
        <ele>111</ele>
        <time>2022-05-12T09:01:11Z</time>
      </trkpt>
      <trkpt lat="48.60931" lon="1.94811">
        <ele>111.9</ele>
        <time>2022-05-12T09:01:17Z</time>
      </trkpt>
      <trkpt lat="48.60941" lon="1.9481">
        <ele>112.7</ele>
        <time>2022-05-12T09:01:24Z</time>
      </trkpt>
      <trkpt lat="48.6095" lon="1.94805">
        <ele>113.8</ele>
        <time>2022-05-12T09:01:30Z</time>
      </trkpt>
      <trkpt lat="48.6096" lon="1.94805">
        <ele>115.3</ele>
        <time>2022-05-12T09:01:36Z</time>
      </trkpt>
      <trkpt lat="48.6097" lon="1.94803">
        <ele>116.5</ele>
        <time>2022-05-12T09:01:42Z</time>
      </trkpt>
      <trkpt lat="48.6098" lon="1.948">
        <ele>117.7</ele>
        <time>2022-05-12T09:01:49Z</time>
      </trkpt>
      <trkpt lat="48.60989" lon="1.94795">
        <ele>118.6</ele>
        <time>2022-05-12T09:01:56Z</time>
      </trkpt>
      <trkpt lat="48.60998" lon="1.94791">
        <ele>119.6</ele>
        <time>2022-05-12T09:02:04Z</time>
      </trkpt>
      <trkpt lat="48.61007" lon="1.94789">
        <ele>120.7</ele>
        <time>2022-05-12T09:02:12Z</time>
      </trkpt>
      <trkpt lat="48.61017" lon="1.94786">
        <ele>121.8</ele>
        <time>2022-05-12T09:02:19Z</time>
      </trkpt>
      <trkpt lat="48.61027" lon="1.94785">
        <ele>123.1</ele>
        <time>2022-05-12T09:02:29Z</time>
      </trkpt>
      <trkpt lat="48.61035" lon="1.94782">
        <ele>123.7</ele>
        <time>2022-05-12T09:02:37Z</time>
      </trkpt>
      <trkpt lat="48.61044" lon="1.94777">
        <ele>124.1</ele>
        <time>2022-05-12T09:02:45Z</time>
      </trkpt>
      <trkpt lat="48.61054" lon="1.94772">
        <ele>124.7</ele>
        <time>2022-05-12T09:02:52Z</time>
      </trkpt>
      <trkpt lat="48.61063" lon="1.94766">
        <ele>124.9</ele>
        <time>2022-05-12T09:03:02Z</time>
      </trkpt>
      <trkpt lat="48.61071" lon="1.94762">
        <ele>125.3</ele>
        <time>2022-05-12T09:03:09Z</time>
      </trkpt>
      <trkpt lat="48.61081" lon="1.94759">
        <ele>125.8</ele>
        <time>2022-05-12T09:03:16Z</time>
      </trkpt>
      <trkpt lat="48.61089" lon="1.94754">
        <ele>126.2</ele>
        <time>2022-05-12T09:03:25Z</time>
      </trkpt>
      <trkpt lat="48.61099" lon="1.9475">
        <ele>126.6</ele>
        <time>2022-05-12T09:03:32Z</time>
      </trkpt>
      <trkpt lat="48.61109" lon="1.94747">
        <ele>126.9</ele>
        <time>2022-05-12T09:03:40Z</time>
      </trkpt>
      <trkpt lat="48.61118" lon="1.94741">
        <ele>127</ele>
        <time>2022-05-12T09:03:47Z</time>
      </trkpt>
      <trkpt lat="48.61127" lon="1.94737">
        <ele>127</ele>
        <time>2022-05-12T09:03:54Z</time>
      </trkpt>
      <trkpt lat="48.61136" lon="1.94736">
        <ele>127</ele>
        <time>2022-05-12T09:04:00Z</time>
      </trkpt>
      <trkpt lat="48.61146" lon="1.94733">
        <ele>127.2</ele>
        <time>2022-05-12T09:04:10Z</time>
      </trkpt>
      <trkpt lat="48.61154" lon="1.94729">
        <ele>127.4</ele>
        <time>2022-05-12T09:04:16Z</time>
      </trkpt>
      <trkpt lat="48.61164" lon="1.94725">
        <ele>127.8</ele>
        <time>2022-05-12T09:04:24Z</time>
      </trkpt>
      <trkpt lat="48.61173" lon="1.9472">
        <ele>128.3</ele>
        <time>2022-05-12T09:04:32Z</time>
      </trkpt>
      <trkpt lat="48.61182" lon="1.94715">
        <ele>128.8</ele>
        <time>2022-05-12T09:04:38Z</time>
      </trkpt>
      <trkpt lat="48.61191" lon="1.94711">
        <ele>129.3</ele>
        <time>2022-05-12T09:04:46Z</time>
      </trkpt>
      <trkpt lat="48.612" lon="1.94707">
        <ele>130.1</ele>
        <time>2022-05-12T09:04:53Z</time>
      </trkpt>
      <trkpt lat="48.61209" lon="1.94704">
        <ele>131.1</ele>
        <time>2022-05-12T09:05:04Z</time>
      </trkpt>
      <trkpt lat="48.61218" lon="1.94698">
        <ele>132.3</ele>
        <time>2022-05-12T09:05:10Z</time>
      </trkpt>
      <trkpt lat="48.61227" lon="1.94692">
        <ele>133.3</ele>
        <time>2022-05-12T09:05:18Z</time>
      </trkpt>
      <trkpt lat="48.61236" lon="1.94689">
        <ele>133.7</ele>
        <time>2022-05-12T09:05:24Z</time>
      </trkpt>
      <trkpt lat="48.61244" lon="1.94683">
        <ele>134.2</ele>
        <time>2022-05-12T09:05:30Z</time>
      </trkpt>
      <trkpt lat="48.61254" lon="1.94679">
        <ele>134.9</ele>
        <time>2022-05-12T09:05:35Z</time>
      </trkpt>
      <trkpt lat="48.61264" lon="1.94676">
        <ele>135.7</ele>
        <time>2022-05-12T09:05:41Z</time>
      </trkpt>
      <trkpt lat="48.61274" lon="1.94674">
        <ele>136.4</ele>
        <time>2022-05-12T09:05:49Z</time>
      </trkpt>
      <trkpt lat="48.61284" lon="1.94671">
        <ele>137.3</ele>
        <time>2022-05-12T09:05:56Z</time>
      </trkpt>
      <trkpt lat="48.61292" lon="1.94666">
        <ele>138.1</ele>
        <time>2022-05-12T09:06:02Z</time>
      </trkpt>
      <trkpt lat="48.61302" lon="1.94663">
        <ele>138.9</ele>
        <time>2022-05-12T09:06:10Z</time>
      </trkpt>
      <trkpt lat="48.61311" lon="1.94658">
        <ele>139.7</ele>
        <time>2022-05-12T09:06:18Z</time>
      </trkpt>
      <trkpt lat="48.6132" lon="1.94653">
        <ele>140.5</ele>
        <time>2022-05-12T09:06:26Z</time>
      </trkpt>
      <trkpt lat="48.61329" lon="1.94648">
        <ele>141.3</ele>
        <time>2022-05-12T09:06:35Z</time>
      </trkpt>
      <trkpt lat="48.61338" lon="1.94644">
        <ele>142.2</ele>
        <time>2022-05-12T09:06:45Z</time>
      </trkpt>
      <trkpt lat="48.61347" lon="1.9464">
        <ele>142.9</ele>
        <time>2022-05-12T09:06:53Z</time>
      </trkpt>
      <trkpt lat="48.61356" lon="1.94636">
        <ele>143.7</ele>
        <time>2022-05-12T09:07:00Z</time>
      </trkpt>
      <trkpt lat="48.61365" lon="1.94634">
        <ele>144.4</ele>
        <time>2022-05-12T09:07:10Z</time>
      </trkpt>
      <trkpt lat="48.61375" lon="1.94631">
        <ele>145.1</ele>
        <time>2022-05-12T09:07:19Z</time>
      </trkpt>
      <trkpt lat="48.61383" lon="1.94626">
        <ele>145.7</ele>
        <time>2022-05-12T09:08:26Z</time>
      </trkpt>
      <trkpt lat="48.61388" lon="1.94638">
        <ele>146</ele>
        <time>2022-05-12T09:08:43Z</time>
      </trkpt>
      <trkpt lat="48.61387" lon="1.94652">
        <ele>145.4</ele>
        <time>2022-05-12T09:08:53Z</time>
      </trkpt>
      <trkpt lat="48.61385" lon="1.94667">
        <ele>144.9</ele>
        <time>2022-05-12T09:09:01Z</time>
      </trkpt>
      <trkpt lat="48.6138" lon="1.9468">
        <ele>144.5</ele>
        <time>2022-05-12T09:09:10Z</time>
      </trkpt>
      <trkpt lat="48.61374" lon="1.94689">
        <ele>144</ele>
        <time>2022-05-12T09:09:18Z</time>
      </trkpt>
      <trkpt lat="48.61369" lon="1.94701">
        <ele>143.3</ele>
        <time>2022-05-12T09:09:28Z</time>
      </trkpt>
      <trkpt lat="48.61362" lon="1.94711">
        <ele>142.5</ele>
        <time>2022-05-12T09:09:40Z</time>
      </trkpt>
      <trkpt lat="48.61356" lon="1.94722">
        <ele>141.5</ele>
        <time>2022-05-12T09:09:49Z</time>
      </trkpt>
      <trkpt lat="48.61352" lon="1.94734">
        <ele>140.3</ele>
        <time>2022-05-12T09:09:57Z</time>
      </trkpt>
      <trkpt lat="48.61347" lon="1.94746">
        <ele>139.2</ele>
        <time>2022-05-12T09:10:04Z</time>
      </trkpt>
      <trkpt lat="48.61342" lon="1.94759">
        <ele>138.1</ele>
        <time>2022-05-12T09:10:12Z</time>
      </trkpt>
      <trkpt lat="48.61337" lon="1.94771">
        <ele>136.9</ele>
        <time>2022-05-12T09:10:21Z</time>
      </trkpt>
      <trkpt lat="48.61332" lon="1.94784">
        <ele>135.7</ele>
        <time>2022-05-12T09:10:32Z</time>
      </trkpt>
      <trkpt lat="48.61328" lon="1.94796">
        <ele>134.9</ele>
        <time>2022-05-12T09:10:39Z</time>
      </trkpt>
      <trkpt lat="48.61323" lon="1.9481">
        <ele>134.1</ele>
        <time>2022-05-12T09:10:47Z</time>
      </trkpt>
      <trkpt lat="48.61322" lon="1.94823">
        <ele>133.5</ele>
        <time>2022-05-12T09:10:55Z</time>
      </trkpt>
      <trkpt lat="48.61322" lon="1.94837">
        <ele>133.1</ele>
        <time>2022-05-12T09:11:03Z</time>
      </trkpt>
      <trkpt lat="48.6132" lon="1.94851">
        <ele>132.8</ele>
        <time>2022-05-12T09:11:10Z</time>
      </trkpt>
      <trkpt lat="48.6132" lon="1.94867">
        <ele>132.5</ele>
        <time>2022-05-12T09:11:18Z</time>
      </trkpt>
      <trkpt lat="48.61319" lon="1.94881">
        <ele>132.4</ele>
        <time>2022-05-12T09:11:24Z</time>
      </trkpt>
      <trkpt lat="48.61317" lon="1.94895">
        <ele>132.2</ele>
        <time>2022-05-12T09:11:30Z</time>
      </trkpt>
      <trkpt lat="48.61314" lon="1.94909">
        <ele>131.9</ele>
        <time>2022-05-12T09:11:36Z</time>
      </trkpt>
      <trkpt lat="48.61314" lon="1.94923">
        <ele>131.9</ele>
        <time>2022-05-12T09:11:42Z</time>
      </trkpt>
      <trkpt lat="48.61313" lon="1.94937">
        <ele>131.8</ele>
        <time>2022-05-12T09:11:47Z</time>
      </trkpt>
      <trkpt lat="48.61314" lon="1.94952">
        <ele>131.9</ele>
        <time>2022-05-12T09:11:55Z</time>
      </trkpt>
      <trkpt lat="48.61311" lon="1.94966">
        <ele>131.6</ele>
        <time>2022-05-12T09:12:02Z</time>
      </trkpt>
      <trkpt lat="48.61308" lon="1.94981">
        <ele>131</ele>
        <time>2022-05-12T09:12:09Z</time>
      </trkpt>
      <trkpt lat="48.61306" lon="1.94995">
        <ele>130.3</ele>
        <time>2022-05-12T09:12:17Z</time>
      </trkpt>
      <trkpt lat="48.61305" lon="1.9501">
        <ele>130.3</ele>
        <time>2022-05-12T09:12:24Z</time>
      </trkpt>
      <trkpt lat="48.61301" lon="1.95024">
        <ele>130.4</ele>
        <time>2022-05-12T09:12:31Z</time>
      </trkpt>
      <trkpt lat="48.61298" lon="1.95037">
        <ele>130.2</ele>
        <time>2022-05-12T09:12:37Z</time>
      </trkpt>
      <trkpt lat="48.61299" lon="1.95053">
        <ele>130.3</ele>
        <time>2022-05-12T09:12:44Z</time>
      </trkpt>
      <trkpt lat="48.61299" lon="1.95068">
        <ele>130.3</ele>
        <time>2022-05-12T09:12:52Z</time>
      </trkpt>
      <trkpt lat="48.61296" lon="1.95081">
        <ele>129.9</ele>
        <time>2022-05-12T09:12:58Z</time>
      </trkpt>
      <trkpt lat="48.61295" lon="1.95096">
        <ele>129.7</ele>
        <time>2022-05-12T09:13:04Z</time>
      </trkpt>
      <trkpt lat="48.61291" lon="1.95109">
        <ele>128.9</ele>
        <time>2022-05-12T09:13:11Z</time>
      </trkpt>
      <trkpt lat="48.61287" lon="1.95123">
        <ele>128.6</ele>
        <time>2022-05-12T09:13:17Z</time>
      </trkpt>
      <trkpt lat="48.61284" lon="1.95136">
        <ele>128.6</ele>
        <time>2022-05-12T09:13:23Z</time>
      </trkpt>
      <trkpt lat="48.61283" lon="1.95152">
        <ele>128.2</ele>
        <time>2022-05-12T09:13:30Z</time>
      </trkpt>
      <trkpt lat="48.6128" lon="1.95166">
        <ele>127.3</ele>
        <time>2022-05-12T09:13:38Z</time>
      </trkpt>
      <trkpt lat="48.61277" lon="1.95179">
        <ele>126.9</ele>
        <time>2022-05-12T09:13:45Z</time>
      </trkpt>
      <trkpt lat="48.61274" lon="1.95193">
        <ele>126.7</ele>
        <time>2022-05-12T09:13:52Z</time>
      </trkpt>
      <trkpt lat="48.61271" lon="1.95207">
        <ele>126.5</ele>
        <time>2022-05-12T09:13:59Z</time>
      </trkpt>
      <trkpt lat="48.61269" lon="1.9522">
        <ele>126.3</ele>
        <time>2022-05-12T09:14:05Z</time>
      </trkpt>
      <trkpt lat="48.61267" lon="1.95235">
        <ele>126.1</ele>
        <time>2022-05-12T09:14:11Z</time>
      </trkpt>
      <trkpt lat="48.61267" lon="1.95249">
        <ele>125.9</ele>
        <time>2022-05-12T09:14:17Z</time>
      </trkpt>
      <trkpt lat="48.61264" lon="1.95262">
        <ele>125.5</ele>
        <time>2022-05-12T09:14:25Z</time>
      </trkpt>
      <trkpt lat="48.61262" lon="1.95276">
        <ele>125.3</ele>
        <time>2022-05-12T09:14:31Z</time>
      </trkpt>
      <trkpt lat="48.61262" lon="1.9529">
        <ele>124.9</ele>
        <time>2022-05-12T09:14:37Z</time>
      </trkpt>
      <trkpt lat="48.61259" lon="1.95304">
        <ele>124</ele>
        <time>2022-05-12T09:14:45Z</time>
      </trkpt>
      <trkpt lat="48.6126" lon="1.95318">
        <ele>124.1</ele>
        <time>2022-05-12T09:14:51Z</time>
      </trkpt>
      <trkpt lat="48.61262" lon="1.95332">
        <ele>124.3</ele>
        <time>2022-05-12T09:14:56Z</time>
      </trkpt>
      <trkpt lat="48.61266" lon="1.95345">
        <ele>124.7</ele>
        <time>2022-05-12T09:15:01Z</time>
      </trkpt>
      <trkpt lat="48.61266" lon="1.95359">
        <ele>124.7</ele>
        <time>2022-05-12T09:15:08Z</time>
      </trkpt>
      <trkpt lat="48.61264" lon="1.95374">
        <ele>124.5</ele>
        <time>2022-05-12T09:15:15Z</time>
      </trkpt>
      <trkpt lat="48.6126" lon="1.95387">
        <ele>124.1</ele>
        <time>2022-05-12T09:15:21Z</time>
      </trkpt>
      <trkpt lat="48.61256" lon="1.954">
        <ele>123.7</ele>
        <time>2022-05-12T09:15:28Z</time>
      </trkpt>
      <trkpt lat="48.61256" lon="1.95414">
        <ele>123.8</ele>
        <time>2022-05-12T09:15:33Z</time>
      </trkpt>
      <trkpt lat="48.61253" lon="1.95429">
        <ele>123.4</ele>
        <time>2022-05-12T09:15:41Z</time>
      </trkpt>
      <trkpt lat="48.61249" lon="1.95442">
        <ele>122.9</ele>
        <time>2022-05-12T09:15:49Z</time>
      </trkpt>
      <trkpt lat="48.61247" lon="1.95455">
        <ele>122.7</ele>
        <time>2022-05-12T09:15:55Z</time>
      </trkpt>
      <trkpt lat="48.61247" lon="1.95469">
        <ele>122.7</ele>
        <time>2022-05-12T09:16:01Z</time>
      </trkpt>
      <trkpt lat="48.61245" lon="1.95484">
        <ele>122.4</ele>
        <time>2022-05-12T09:16:09Z</time>
      </trkpt>
      <trkpt lat="48.61244" lon="1.95499">
        <ele>122.3</ele>
        <time>2022-05-12T09:16:17Z</time>
      </trkpt>
      <trkpt lat="48.61242" lon="1.95513">
        <ele>122.1</ele>
        <time>2022-05-12T09:16:25Z</time>
      </trkpt>
      <trkpt lat="48.61239" lon="1.95527">
        <ele>121.8</ele>
        <time>2022-05-12T09:16:31Z</time>
      </trkpt>
      <trkpt lat="48.61236" lon="1.95541">
        <ele>121.3</ele>
        <time>2022-05-12T09:16:37Z</time>
      </trkpt>
      <trkpt lat="48.6123" lon="1.95551">
        <ele>120.6</ele>
        <time>2022-05-12T09:16:44Z</time>
      </trkpt>
      <trkpt lat="48.61227" lon="1.95564">
        <ele>120.1</ele>
        <time>2022-05-12T09:16:50Z</time>
      </trkpt>
      <trkpt lat="48.61225" lon="1.95579">
        <ele>119.4</ele>
        <time>2022-05-12T09:16:57Z</time>
      </trkpt>
      <trkpt lat="48.61222" lon="1.95593">
        <ele>119</ele>
        <time>2022-05-12T09:17:03Z</time>
      </trkpt>
      <trkpt lat="48.61221" lon="1.95609">
        <ele>118.9</ele>
        <time>2022-05-12T09:17:10Z</time>
      </trkpt>
      <trkpt lat="48.61219" lon="1.95622">
        <ele>118.8</ele>
        <time>2022-05-12T09:17:16Z</time>
      </trkpt>
      <trkpt lat="48.61216" lon="1.95636">
        <ele>118.5</ele>
        <time>2022-05-12T09:17:24Z</time>
      </trkpt>
      <trkpt lat="48.61215" lon="1.9565">
        <ele>118.1</ele>
        <time>2022-05-12T09:17:31Z</time>
      </trkpt>
      <trkpt lat="48.61213" lon="1.95664">
        <ele>117.5</ele>
        <time>2022-05-12T09:17:38Z</time>
      </trkpt>
      <trkpt lat="48.61214" lon="1.95679">
        <ele>117.4</ele>
        <time>2022-05-12T09:17:44Z</time>
      </trkpt>
      <trkpt lat="48.61214" lon="1.95694">
        <ele>117.4</ele>
        <time>2022-05-12T09:17:51Z</time>
      </trkpt>
      <trkpt lat="48.61216" lon="1.95707">
        <ele>117.1</ele>
        <time>2022-05-12T09:17:59Z</time>
      </trkpt>
      <trkpt lat="48.61224" lon="1.95713">
        <ele>117.4</ele>
        <time>2022-05-12T09:18:10Z</time>
      </trkpt>
      <trkpt lat="48.61229" lon="1.95702">
        <ele>118.1</ele>
        <time>2022-05-12T09:18:29Z</time>
      </trkpt>
      <trkpt lat="48.61234" lon="1.9569">
        <ele>118.5</ele>
        <time>2022-05-12T09:18:39Z</time>
      </trkpt>
      <trkpt lat="48.61239" lon="1.95677">
        <ele>119</ele>
        <time>2022-05-12T09:18:49Z</time>
      </trkpt>
      <trkpt lat="48.61242" lon="1.95663">
        <ele>119.5</ele>
        <time>2022-05-12T09:18:59Z</time>
      </trkpt>
      <trkpt lat="48.61246" lon="1.9565">
        <ele>120.3</ele>
        <time>2022-05-12T09:19:11Z</time>
      </trkpt>
      <trkpt lat="48.61253" lon="1.95642">
        <ele>121</ele>
        <time>2022-05-12T09:19:16Z</time>
      </trkpt>
      <trkpt lat="48.61262" lon="1.95634">
        <ele>121.5</ele>
        <time>2022-05-12T09:19:22Z</time>
      </trkpt>
      <trkpt lat="48.61267" lon="1.95624">
        <ele>122</ele>
        <time>2022-05-12T09:19:28Z</time>
      </trkpt>
      <trkpt lat="48.61274" lon="1.95614">
        <ele>122.6</ele>
        <time>2022-05-12T09:19:34Z</time>
      </trkpt>
      <trkpt lat="48.6128" lon="1.95602">
        <ele>123.5</ele>
        <time>2022-05-12T09:19:40Z</time>
      </trkpt>
      <trkpt lat="48.61287" lon="1.95593">
        <ele>124.3</ele>
        <time>2022-05-12T09:19:47Z</time>
      </trkpt>
      <trkpt lat="48.61291" lon="1.95581">
        <ele>125.2</ele>
        <time>2022-05-12T09:19:53Z</time>
      </trkpt>
      <trkpt lat="48.61296" lon="1.95569">
        <ele>126.3</ele>
        <time>2022-05-12T09:19:59Z</time>
      </trkpt>
      <trkpt lat="48.61299" lon="1.95556">
        <ele>127.5</ele>
        <time>2022-05-12T09:20:07Z</time>
      </trkpt>
      <trkpt lat="48.61303" lon="1.95543">
        <ele>128.3</ele>
        <time>2022-05-12T09:20:16Z</time>
      </trkpt>
      <trkpt lat="48.61307" lon="1.9553">
        <ele>128.9</ele>
        <time>2022-05-12T09:20:24Z</time>
      </trkpt>
      <trkpt lat="48.61313" lon="1.95519">
        <ele>129.3</ele>
        <time>2022-05-12T09:20:32Z</time>
      </trkpt>
      <trkpt lat="48.61316" lon="1.95505">
        <ele>129.8</ele>
        <time>2022-05-12T09:20:40Z</time>
      </trkpt>
      <trkpt lat="48.6132" lon="1.95492">
        <ele>130.1</ele>
        <time>2022-05-12T09:20:48Z</time>
      </trkpt>
      <trkpt lat="48.61323" lon="1.95479">
        <ele>130.5</ele>
        <time>2022-05-12T09:20:55Z</time>
      </trkpt>
      <trkpt lat="48.61325" lon="1.95465">
        <ele>130.7</ele>
        <time>2022-05-12T09:21:02Z</time>
      </trkpt>
      <trkpt lat="48.61327" lon="1.9545">
        <ele>130.8</ele>
        <time>2022-05-12T09:21:11Z</time>
      </trkpt>
      <trkpt lat="48.61331" lon="1.95438">
        <ele>131.1</ele>
        <time>2022-05-12T09:21:17Z</time>
      </trkpt>
      <trkpt lat="48.61333" lon="1.95423">
        <ele>131.8</ele>
        <time>2022-05-12T09:21:24Z</time>
      </trkpt>
      <trkpt lat="48.61337" lon="1.9541">
        <ele>131.9</ele>
        <time>2022-05-12T09:21:30Z</time>
      </trkpt>
      <trkpt lat="48.61339" lon="1.95396">
        <ele>131.9</ele>
        <time>2022-05-12T09:21:37Z</time>
      </trkpt>
      <trkpt lat="48.61342" lon="1.95382">
        <ele>132.1</ele>
        <time>2022-05-12T09:21:44Z</time>
      </trkpt>
      <trkpt lat="48.61345" lon="1.95367">
        <ele>132.3</ele>
        <time>2022-05-12T09:21:51Z</time>
      </trkpt>
      <trkpt lat="48.61347" lon="1.95352">
        <ele>132.8</ele>
        <time>2022-05-12T09:21:59Z</time>
      </trkpt>
      <trkpt lat="48.61347" lon="1.95338">
        <ele>133.3</ele>
        <time>2022-05-12T09:22:07Z</time>
      </trkpt>
      <trkpt lat="48.61346" lon="1.95324">
        <ele>133.6</ele>
        <time>2022-05-12T09:22:16Z</time>
      </trkpt>
      <trkpt lat="48.61347" lon="1.95309">
        <ele>133.9</ele>
        <time>2022-05-12T09:22:22Z</time>
      </trkpt>
      <trkpt lat="48.61349" lon="1.95294">
        <ele>134.3</ele>
        <time>2022-05-12T09:22:29Z</time>
      </trkpt>
      <trkpt lat="48.6135" lon="1.95279">
        <ele>134.6</ele>
        <time>2022-05-12T09:22:36Z</time>
      </trkpt>
      <trkpt lat="48.61353" lon="1.95265">
        <ele>135</ele>
        <time>2022-05-12T09:22:42Z</time>
      </trkpt>
      <trkpt lat="48.61355" lon="1.95251">
        <ele>135.5</ele>
        <time>2022-05-12T09:22:48Z</time>
      </trkpt>
      <trkpt lat="48.61358" lon="1.95236">
        <ele>135.7</ele>
        <time>2022-05-12T09:22:54Z</time>
      </trkpt>
      <trkpt lat="48.61359" lon="1.95223">
        <ele>135.8</ele>
        <time>2022-05-12T09:23:00Z</time>
      </trkpt>
      <trkpt lat="48.61362" lon="1.9521">
        <ele>136.5</ele>
        <time>2022-05-12T09:23:07Z</time>
      </trkpt>
      <trkpt lat="48.61364" lon="1.95196">
        <ele>137</ele>
        <time>2022-05-12T09:23:14Z</time>
      </trkpt>
      <trkpt lat="48.61363" lon="1.95181">
        <ele>137.6</ele>
        <time>2022-05-12T09:23:22Z</time>
      </trkpt>
      <trkpt lat="48.61365" lon="1.95166">
        <ele>138.1</ele>
        <time>2022-05-12T09:23:29Z</time>
      </trkpt>
      <trkpt lat="48.61368" lon="1.95152">
        <ele>138.2</ele>
        <time>2022-05-12T09:23:37Z</time>
      </trkpt>
      <trkpt lat="48.61369" lon="1.95137">
        <ele>138.4</ele>
        <time>2022-05-12T09:23:44Z</time>
      </trkpt>
      <trkpt lat="48.61371" lon="1.95122">
        <ele>139</ele>
        <time>2022-05-12T09:23:51Z</time>
      </trkpt>
      <trkpt lat="48.6137" lon="1.95108">
        <ele>139.4</ele>
        <time>2022-05-12T09:23:58Z</time>
      </trkpt>
      <trkpt lat="48.61371" lon="1.95093">
        <ele>139.6</ele>
        <time>2022-05-12T09:24:05Z</time>
      </trkpt>
      <trkpt lat="48.61371" lon="1.95079">
        <ele>139.7</ele>
        <time>2022-05-12T09:24:13Z</time>
      </trkpt>
      <trkpt lat="48.61374" lon="1.95064">
        <ele>140</ele>
        <time>2022-05-12T09:24:21Z</time>
      </trkpt>
      <trkpt lat="48.61375" lon="1.9505">
        <ele>139.9</ele>
        <time>2022-05-12T09:24:28Z</time>
      </trkpt>
      <trkpt lat="48.61376" lon="1.95036">
        <ele>139.7</ele>
        <time>2022-05-12T09:24:35Z</time>
      </trkpt>
      <trkpt lat="48.61378" lon="1.95021">
        <ele>139.8</ele>
        <time>2022-05-12T09:24:43Z</time>
      </trkpt>
      <trkpt lat="48.61381" lon="1.95008">
        <ele>140.2</ele>
        <time>2022-05-12T09:24:49Z</time>
      </trkpt>
      <trkpt lat="48.61383" lon="1.94993">
        <ele>140.3</ele>
        <time>2022-05-12T09:24:56Z</time>
      </trkpt>
      <trkpt lat="48.61385" lon="1.9498">
        <ele>140.5</ele>
        <time>2022-05-12T09:25:04Z</time>
      </trkpt>
      <trkpt lat="48.61388" lon="1.94967">
        <ele>140.7</ele>
        <time>2022-05-12T09:25:11Z</time>
      </trkpt>
      <trkpt lat="48.61391" lon="1.94952">
        <ele>140.5</ele>
        <time>2022-05-12T09:25:18Z</time>
      </trkpt>
      <trkpt lat="48.61395" lon="1.9494">
        <ele>140.7</ele>
        <time>2022-05-12T09:25:23Z</time>
      </trkpt>
      <trkpt lat="48.61401" lon="1.94927">
        <ele>141.3</ele>
        <time>2022-05-12T09:25:29Z</time>
      </trkpt>
      <trkpt lat="48.61404" lon="1.94913">
        <ele>141.7</ele>
        <time>2022-05-12T09:25:37Z</time>
      </trkpt>
      <trkpt lat="48.6141" lon="1.94901">
        <ele>142.3</ele>
        <time>2022-05-12T09:25:44Z</time>
      </trkpt>
      <trkpt lat="48.61415" lon="1.94887">
        <ele>142.8</ele>
        <time>2022-05-12T09:25:51Z</time>
      </trkpt>
      <trkpt lat="48.61419" lon="1.94873">
        <ele>142.6</ele>
        <time>2022-05-12T09:26:00Z</time>
      </trkpt>
      <trkpt lat="48.61424" lon="1.9486">
        <ele>142.5</ele>
        <time>2022-05-12T09:26:10Z</time>
      </trkpt>
      <trkpt lat="48.61428" lon="1.94847">
        <ele>142.6</ele>
        <time>2022-05-12T09:26:17Z</time>
      </trkpt>
      <trkpt lat="48.61435" lon="1.94836">
        <ele>142.7</ele>
        <time>2022-05-12T09:26:24Z</time>
      </trkpt>
      <trkpt lat="48.6144" lon="1.94824">
        <ele>143.1</ele>
        <time>2022-05-12T09:26:32Z</time>
      </trkpt>
      <trkpt lat="48.61444" lon="1.94811">
        <ele>143.8</ele>
        <time>2022-05-12T09:26:40Z</time>
      </trkpt>
      <trkpt lat="48.6145" lon="1.94798">
        <ele>143.8</ele>
        <time>2022-05-12T09:26:46Z</time>
      </trkpt>
      <trkpt lat="48.61457" lon="1.94787">
        <ele>143.5</ele>
        <time>2022-05-12T09:26:53Z</time>
      </trkpt>
      <trkpt lat="48.61464" lon="1.94776">
        <ele>143.3</ele>
        <time>2022-05-12T09:26:59Z</time>
      </trkpt>
      <trkpt lat="48.61469" lon="1.94765">
        <ele>143.1</ele>
        <time>2022-05-12T09:27:07Z</time>
      </trkpt>
      <trkpt lat="48.61476" lon="1.94754">
        <ele>142.7</ele>
        <time>2022-05-12T09:27:14Z</time>
      </trkpt>
      <trkpt lat="48.61483" lon="1.94742">
        <ele>142.3</ele>
        <time>2022-05-12T09:27:20Z</time>
      </trkpt>
      <trkpt lat="48.61481" lon="1.94727">
        <ele>142.4</ele>
        <time>2022-05-12T09:27:31Z</time>
      </trkpt>
      <trkpt lat="48.61481" lon="1.94713">
        <ele>142.4</ele>
        <time>2022-05-12T09:27:38Z</time>
      </trkpt>
      <trkpt lat="48.61482" lon="1.94698">
        <ele>142.3</ele>
        <time>2022-05-12T09:27:45Z</time>
      </trkpt>
      <trkpt lat="48.61475" lon="1.94688">
        <ele>142.8</ele>
        <time>2022-05-12T09:27:54Z</time>
      </trkpt>
      <trkpt lat="48.61467" lon="1.9468">
        <ele>143.2</ele>
        <time>2022-05-12T09:28:00Z</time>
      </trkpt>
      <trkpt lat="48.61459" lon="1.94672">
        <ele>143.5</ele>
        <time>2022-05-12T09:28:08Z</time>
      </trkpt>
      <trkpt lat="48.61451" lon="1.94665">
        <ele>143.8</ele>
        <time>2022-05-12T09:28:16Z</time>
      </trkpt>
      <trkpt lat="48.61444" lon="1.94655">
        <ele>144</ele>
        <time>2022-05-12T09:28:23Z</time>
      </trkpt>
      <trkpt lat="48.61436" lon="1.94647">
        <ele>144.3</ele>
        <time>2022-05-12T09:28:31Z</time>
      </trkpt>
      <trkpt lat="48.61429" lon="1.94639">
        <ele>144.6</ele>
        <time>2022-05-12T09:28:39Z</time>
      </trkpt>
      <trkpt lat="48.6142" lon="1.94633">
        <ele>145.1</ele>
        <time>2022-05-12T09:28:54Z</time>
      </trkpt>
      <trkpt lat="48.61411" lon="1.94626">
        <ele>145.6</ele>
        <time>2022-05-12T09:29:02Z</time>
      </trkpt>
      <trkpt lat="48.61402" lon="1.94618">
        <ele>145.9</ele>
        <time>2022-05-12T09:29:08Z</time>
      </trkpt>
      <trkpt lat="48.61394" lon="1.94611">
        <ele>146</ele>
        <time>2022-05-12T09:29:14Z</time>
      </trkpt>
      <trkpt lat="48.61386" lon="1.94601">
        <ele>146.2</ele>
        <time>2022-05-12T09:29:21Z</time>
      </trkpt>
      <trkpt lat="48.61378" lon="1.94593">
        <ele>146.2</ele>
        <time>2022-05-12T09:29:27Z</time>
      </trkpt>
      <trkpt lat="48.61371" lon="1.94585">
        <ele>146.3</ele>
        <time>2022-05-12T09:29:35Z</time>
      </trkpt>
      <trkpt lat="48.61362" lon="1.94576">
        <ele>146.3</ele>
        <time>2022-05-12T09:29:43Z</time>
      </trkpt>
      <trkpt lat="48.61355" lon="1.94566">
        <ele>146.1</ele>
        <time>2022-05-12T09:29:49Z</time>
      </trkpt>
      <trkpt lat="48.61349" lon="1.94556">
        <ele>145.6</ele>
        <time>2022-05-12T09:29:57Z</time>
      </trkpt>
      <trkpt lat="48.61341" lon="1.94546">
        <ele>144.8</ele>
        <time>2022-05-12T09:30:05Z</time>
      </trkpt>
      <trkpt lat="48.61333" lon="1.94538">
        <ele>144</ele>
        <time>2022-05-12T09:30:11Z</time>
      </trkpt>
      <trkpt lat="48.61327" lon="1.94527">
        <ele>143.6</ele>
        <time>2022-05-12T09:30:18Z</time>
      </trkpt>
      <trkpt lat="48.61324" lon="1.94514">
        <ele>143.3</ele>
        <time>2022-05-12T09:30:24Z</time>
      </trkpt>
      <trkpt lat="48.61326" lon="1.945">
        <ele>143.5</ele>
        <time>2022-05-12T09:30:31Z</time>
      </trkpt>
      <trkpt lat="48.61329" lon="1.94486">
        <ele>143.8</ele>
        <time>2022-05-12T09:30:42Z</time>
      </trkpt>
      <trkpt lat="48.6133" lon="1.9447">
        <ele>143.9</ele>
        <time>2022-05-12T09:30:50Z</time>
      </trkpt>
      <trkpt lat="48.6133" lon="1.94456">
        <ele>143.9</ele>
        <time>2022-05-12T09:30:58Z</time>
      </trkpt>
      <trkpt lat="48.61331" lon="1.94442">
        <ele>144</ele>
        <time>2022-05-12T09:31:05Z</time>
      </trkpt>
      <trkpt lat="48.61334" lon="1.94428">
        <ele>144.6</ele>
        <time>2022-05-12T09:31:13Z</time>
      </trkpt>
      <trkpt lat="48.61336" lon="1.94414">
        <ele>145.2</ele>
        <time>2022-05-12T09:31:21Z</time>
      </trkpt>
      <trkpt lat="48.61338" lon="1.94398">
        <ele>145.4</ele>
        <time>2022-05-12T09:31:30Z</time>
      </trkpt>
      <trkpt lat="48.61341" lon="1.94385">
        <ele>145.6</ele>
        <time>2022-05-12T09:31:38Z</time>
      </trkpt>
      <trkpt lat="48.61343" lon="1.9437">
        <ele>145.9</ele>
        <time>2022-05-12T09:31:45Z</time>
      </trkpt>
      <trkpt lat="48.61343" lon="1.94356">
        <ele>146.2</ele>
        <time>2022-05-12T09:31:53Z</time>
      </trkpt>
      <trkpt lat="48.61347" lon="1.94343">
        <ele>146.8</ele>
        <time>2022-05-12T09:32:00Z</time>
      </trkpt>
      <trkpt lat="48.6135" lon="1.94329">
        <ele>147.3</ele>
        <time>2022-05-12T09:32:08Z</time>
      </trkpt>
      <trkpt lat="48.61353" lon="1.94316">
        <ele>147.8</ele>
        <time>2022-05-12T09:32:15Z</time>
      </trkpt>
      <trkpt lat="48.61356" lon="1.94303">
        <ele>148.5</ele>
        <time>2022-05-12T09:32:25Z</time>
      </trkpt>
      <trkpt lat="48.61356" lon="1.94289">
        <ele>149.1</ele>
        <time>2022-05-12T09:32:33Z</time>
      </trkpt>
      <trkpt lat="48.61361" lon="1.94274">
        <ele>150.2</ele>
        <time>2022-05-12T09:32:40Z</time>
      </trkpt>
      <trkpt lat="48.61365" lon="1.94262">
        <ele>151.6</ele>
        <time>2022-05-12T09:32:46Z</time>
      </trkpt>
      <trkpt lat="48.61368" lon="1.94248">
        <ele>152.9</ele>
        <time>2022-05-12T09:32:53Z</time>
      </trkpt>
      <trkpt lat="48.61368" lon="1.94233">
        <ele>154.2</ele>
        <time>2022-05-12T09:33:03Z</time>
      </trkpt>
      <trkpt lat="48.61366" lon="1.94218">
        <ele>155.1</ele>
        <time>2022-05-12T09:33:13Z</time>
      </trkpt>
      <trkpt lat="48.61365" lon="1.94203">
        <ele>156</ele>
        <time>2022-05-12T09:33:21Z</time>
      </trkpt>
      <trkpt lat="48.61366" lon="1.94188">
        <ele>157.1</ele>
        <time>2022-05-12T09:33:30Z</time>
      </trkpt>
      <trkpt lat="48.61363" lon="1.94175">
        <ele>157.7</ele>
        <time>2022-05-12T09:33:39Z</time>
      </trkpt>
      <trkpt lat="48.61362" lon="1.94161">
        <ele>158.3</ele>
        <time>2022-05-12T09:33:48Z</time>
      </trkpt>
      <trkpt lat="48.61363" lon="1.94146">
        <ele>158.9</ele>
        <time>2022-05-12T09:33:57Z</time>
      </trkpt>
      <trkpt lat="48.61365" lon="1.94132">
        <ele>159.7</ele>
        <time>2022-05-12T09:34:05Z</time>
      </trkpt>
      <trkpt lat="48.61369" lon="1.94118">
        <ele>160.6</ele>
        <time>2022-05-12T09:34:13Z</time>
      </trkpt>
      <trkpt lat="48.61375" lon="1.94106">
        <ele>161.7</ele>
        <time>2022-05-12T09:34:22Z</time>
      </trkpt>
      <trkpt lat="48.61382" lon="1.94096">
        <ele>162.8</ele>
        <time>2022-05-12T09:34:29Z</time>
      </trkpt>
      <trkpt lat="48.61388" lon="1.94084">
        <ele>163.9</ele>
        <time>2022-05-12T09:34:37Z</time>
      </trkpt>
      <trkpt lat="48.61393" lon="1.94072">
        <ele>164.2</ele>
        <time>2022-05-12T09:34:45Z</time>
      </trkpt>
      <trkpt lat="48.614" lon="1.94061">
        <ele>164.7</ele>
        <time>2022-05-12T09:34:53Z</time>
      </trkpt>
      <trkpt lat="48.61406" lon="1.9405">
        <ele>165.1</ele>
        <time>2022-05-12T09:35:00Z</time>
      </trkpt>
      <trkpt lat="48.61413" lon="1.94039">
        <ele>165.6</ele>
        <time>2022-05-12T09:35:08Z</time>
      </trkpt>
      <trkpt lat="48.6142" lon="1.9403">
        <ele>166</ele>
        <time>2022-05-12T09:35:13Z</time>
      </trkpt>
      <trkpt lat="48.61426" lon="1.9402">
        <ele>165.5</ele>
        <time>2022-05-12T09:35:19Z</time>
      </trkpt>
      <trkpt lat="48.61431" lon="1.94007">
        <ele>164.9</ele>
        <time>2022-05-12T09:35:28Z</time>
      </trkpt>
      <trkpt lat="48.61437" lon="1.93995">
        <ele>164.7</ele>
        <time>2022-05-12T09:35:35Z</time>
      </trkpt>
      <trkpt lat="48.61442" lon="1.9398">
        <ele>164.8</ele>
        <time>2022-05-12T09:35:42Z</time>
      </trkpt>
      <trkpt lat="48.61446" lon="1.93968">
        <ele>164.8</ele>
        <time>2022-05-12T09:35:51Z</time>
      </trkpt>
      <trkpt lat="48.61452" lon="1.93955">
        <ele>164.2</ele>
        <time>2022-05-12T09:35:59Z</time>
      </trkpt>
      <trkpt lat="48.61457" lon="1.93943">
        <ele>163.8</ele>
        <time>2022-05-12T09:36:06Z</time>
      </trkpt>
      <trkpt lat="48.61463" lon="1.93932">
        <ele>163.8</ele>
        <time>2022-05-12T09:36:13Z</time>
      </trkpt>
      <trkpt lat="48.61469" lon="1.9392">
        <ele>163.8</ele>
        <time>2022-05-12T09:36:21Z</time>
      </trkpt>
      <trkpt lat="48.61474" lon="1.93906">
        <ele>163.8</ele>
        <time>2022-05-12T09:36:30Z</time>
      </trkpt>
      <trkpt lat="48.61479" lon="1.93895">
        <ele>163.9</ele>
        <time>2022-05-12T09:36:37Z</time>
      </trkpt>
      <trkpt lat="48.61487" lon="1.93886">
        <ele>164.5</ele>
        <time>2022-05-12T09:36:43Z</time>
      </trkpt>
      <trkpt lat="48.61495" lon="1.93876">
        <ele>164.9</ele>
        <time>2022-05-12T09:36:51Z</time>
      </trkpt>
      <trkpt lat="48.61498" lon="1.93861">
        <ele>164.8</ele>
        <time>2022-05-12T09:36:59Z</time>
      </trkpt>
      <trkpt lat="48.61504" lon="1.93849">
        <ele>164.8</ele>
        <time>2022-05-12T09:37:06Z</time>
      </trkpt>
      <trkpt lat="48.61509" lon="1.93837">
        <ele>164.8</ele>
        <time>2022-05-12T09:37:13Z</time>
      </trkpt>
      <trkpt lat="48.61516" lon="1.93826">
        <ele>165</ele>
        <time>2022-05-12T09:37:19Z</time>
      </trkpt>
      <trkpt lat="48.61523" lon="1.93818">
        <ele>165.6</ele>
        <time>2022-05-12T09:37:26Z</time>
      </trkpt>
      <trkpt lat="48.6153" lon="1.93806">
        <ele>166.1</ele>
        <time>2022-05-12T09:37:33Z</time>
      </trkpt>
      <trkpt lat="48.61536" lon="1.93794">
        <ele>165.6</ele>
        <time>2022-05-12T09:37:40Z</time>
      </trkpt>
      <trkpt lat="48.61544" lon="1.93785">
        <ele>165.5</ele>
        <time>2022-05-12T09:37:47Z</time>
      </trkpt>
      <trkpt lat="48.61549" lon="1.93772">
        <ele>165.2</ele>
        <time>2022-05-12T09:37:54Z</time>
      </trkpt>
      <trkpt lat="48.61556" lon="1.9376">
        <ele>165.4</ele>
        <time>2022-05-12T09:38:02Z</time>
      </trkpt>
      <trkpt lat="48.61563" lon="1.93753">
        <ele>165.4</ele>
        <time>2022-05-12T09:38:08Z</time>
      </trkpt>
      <trkpt lat="48.6157" lon="1.93744">
        <ele>165.2</ele>
        <time>2022-05-12T09:38:14Z</time>
      </trkpt>
      <trkpt lat="48.61578" lon="1.93736">
        <ele>165.2</ele>
        <time>2022-05-12T09:38:20Z</time>
      </trkpt>
      <trkpt lat="48.61585" lon="1.93725">
        <ele>165.2</ele>
        <time>2022-05-12T09:38:27Z</time>
      </trkpt>
      <trkpt lat="48.61592" lon="1.93714">
        <ele>165.3</ele>
        <time>2022-05-12T09:38:35Z</time>
      </trkpt>
      <trkpt lat="48.61596" lon="1.93701">
        <ele>165.5</ele>
        <time>2022-05-12T09:38:43Z</time>
      </trkpt>
      <trkpt lat="48.61601" lon="1.93688">
        <ele>165.6</ele>
        <time>2022-05-12T09:38:51Z</time>
      </trkpt>
      <trkpt lat="48.61608" lon="1.93677">
        <ele>165.8</ele>
        <time>2022-05-12T09:38:59Z</time>
      </trkpt>
      <trkpt lat="48.61613" lon="1.93663">
        <ele>166.1</ele>
        <time>2022-05-12T09:39:06Z</time>
      </trkpt>
      <trkpt lat="48.61619" lon="1.9365">
        <ele>166.3</ele>
        <time>2022-05-12T09:39:14Z</time>
      </trkpt>
      <trkpt lat="48.61625" lon="1.93639">
        <ele>166.5</ele>
        <time>2022-05-12T09:39:22Z</time>
      </trkpt>
      <trkpt lat="48.6163" lon="1.93627">
        <ele>166.7</ele>
        <time>2022-05-12T09:39:30Z</time>
      </trkpt>
      <trkpt lat="48.61633" lon="1.93614">
        <ele>166.8</ele>
        <time>2022-05-12T09:39:37Z</time>
      </trkpt>
      <trkpt lat="48.61636" lon="1.936">
        <ele>166.9</ele>
        <time>2022-05-12T09:39:44Z</time>
      </trkpt>
      <trkpt lat="48.61641" lon="1.93588">
        <ele>167.1</ele>
        <time>2022-05-12T09:39:51Z</time>
      </trkpt>
      <trkpt lat="48.61642" lon="1.93573">
        <ele>167.1</ele>
        <time>2022-05-12T09:39:59Z</time>
      </trkpt>
      <trkpt lat="48.61644" lon="1.93559">
        <ele>167.2</ele>
        <time>2022-05-12T09:40:06Z</time>
      </trkpt>
      <trkpt lat="48.61646" lon="1.93544">
        <ele>167.3</ele>
        <time>2022-05-12T09:40:15Z</time>
      </trkpt>
      <trkpt lat="48.6165" lon="1.93531">
        <ele>167.4</ele>
        <time>2022-05-12T09:40:22Z</time>
      </trkpt>
      <trkpt lat="48.61653" lon="1.93515">
        <ele>167.5</ele>
        <time>2022-05-12T09:40:29Z</time>
      </trkpt>
      <trkpt lat="48.61655" lon="1.93501">
        <ele>167.6</ele>
        <time>2022-05-12T09:40:37Z</time>
      </trkpt>
      <trkpt lat="48.61658" lon="1.93486">
        <ele>167.8</ele>
        <time>2022-05-12T09:40:45Z</time>
      </trkpt>
      <trkpt lat="48.61659" lon="1.9347">
        <ele>168</ele>
        <time>2022-05-12T09:40:51Z</time>
      </trkpt>
      <trkpt lat="48.61661" lon="1.93456">
        <ele>168.5</ele>
        <time>2022-05-12T09:40:57Z</time>
      </trkpt>
      <trkpt lat="48.61663" lon="1.9344">
        <ele>168.9</ele>
        <time>2022-05-12T09:41:04Z</time>
      </trkpt>
      <trkpt lat="48.61663" lon="1.93425">
        <ele>168.9</ele>
        <time>2022-05-12T09:41:12Z</time>
      </trkpt>
      <trkpt lat="48.61664" lon="1.9341">
        <ele>168.9</ele>
        <time>2022-05-12T09:41:19Z</time>
      </trkpt>
      <trkpt lat="48.61666" lon="1.93396">
        <ele>169</ele>
        <time>2022-05-12T09:41:26Z</time>
      </trkpt>
      <trkpt lat="48.61669" lon="1.93382">
        <ele>169.1</ele>
        <time>2022-05-12T09:41:32Z</time>
      </trkpt>
      <trkpt lat="48.61668" lon="1.93367">
        <ele>169</ele>
        <time>2022-05-12T09:41:38Z</time>
      </trkpt>
      <trkpt lat="48.61667" lon="1.93352">
        <ele>169.3</ele>
        <time>2022-05-12T09:41:46Z</time>
      </trkpt>
      <trkpt lat="48.61666" lon="1.93337">
        <ele>169.9</ele>
        <time>2022-05-12T09:41:54Z</time>
      </trkpt>
      <trkpt lat="48.61664" lon="1.93323">
        <ele>170</ele>
        <time>2022-05-12T09:42:01Z</time>
      </trkpt>
      <trkpt lat="48.61666" lon="1.9331">
        <ele>170</ele>
        <time>2022-05-12T09:42:06Z</time>
      </trkpt>
      <trkpt lat="48.61668" lon="1.93295">
        <ele>170</ele>
        <time>2022-05-12T09:42:12Z</time>
      </trkpt>
      <trkpt lat="48.61668" lon="1.93281">
        <ele>170</ele>
        <time>2022-05-12T09:42:18Z</time>
      </trkpt>
      <trkpt lat="48.6167" lon="1.93267">
        <ele>170.4</ele>
        <time>2022-05-12T09:42:24Z</time>
      </trkpt>
      <trkpt lat="48.61671" lon="1.93252">
        <ele>170.9</ele>
        <time>2022-05-12T09:42:31Z</time>
      </trkpt>
      <trkpt lat="48.61673" lon="1.93239">
        <ele>171</ele>
        <time>2022-05-12T09:42:37Z</time>
      </trkpt>
      <trkpt lat="48.61675" lon="1.93225">
        <ele>171</ele>
        <time>2022-05-12T09:42:43Z</time>
      </trkpt>
      <trkpt lat="48.61674" lon="1.93211">
        <ele>171</ele>
        <time>2022-05-12T09:42:51Z</time>
      </trkpt>
      <trkpt lat="48.61672" lon="1.93197">
        <ele>171</ele>
        <time>2022-05-12T09:43:00Z</time>
      </trkpt>
      <trkpt lat="48.61671" lon="1.93181">
        <ele>171</ele>
        <time>2022-05-12T09:43:07Z</time>
      </trkpt>
      <trkpt lat="48.6167" lon="1.93166">
        <ele>171</ele>
        <time>2022-05-12T09:43:15Z</time>
      </trkpt>
      <trkpt lat="48.61667" lon="1.93152">
        <ele>171</ele>
        <time>2022-05-12T09:43:22Z</time>
      </trkpt>
      <trkpt lat="48.61666" lon="1.93138">
        <ele>171</ele>
        <time>2022-05-12T09:43:28Z</time>
      </trkpt>
      <trkpt lat="48.61664" lon="1.93122">
        <ele>171.6</ele>
        <time>2022-05-12T09:43:35Z</time>
      </trkpt>
      <trkpt lat="48.61663" lon="1.93108">
        <ele>172</ele>
        <time>2022-05-12T09:43:42Z</time>
      </trkpt>
      <trkpt lat="48.61662" lon="1.93093">
        <ele>172</ele>
        <time>2022-05-12T09:43:50Z</time>
      </trkpt>
      <trkpt lat="48.6166" lon="1.93079">
        <ele>172</ele>
        <time>2022-05-12T09:43:57Z</time>
      </trkpt>
      <trkpt lat="48.61658" lon="1.93064">
        <ele>172</ele>
        <time>2022-05-12T09:44:03Z</time>
      </trkpt>
      <trkpt lat="48.61657" lon="1.9305">
        <ele>172</ele>
        <time>2022-05-12T09:44:10Z</time>
      </trkpt>
      <trkpt lat="48.61654" lon="1.93036">
        <ele>172</ele>
        <time>2022-05-12T09:44:18Z</time>
      </trkpt>
      <trkpt lat="48.61652" lon="1.93022">
        <ele>172</ele>
        <time>2022-05-12T09:44:25Z</time>
      </trkpt>
      <trkpt lat="48.61655" lon="1.93009">
        <ele>172</ele>
        <time>2022-05-12T09:44:34Z</time>
      </trkpt>
      <trkpt lat="48.61658" lon="1.92994">
        <ele>172</ele>
        <time>2022-05-12T09:44:43Z</time>
      </trkpt>
      <trkpt lat="48.61658" lon="1.92979">
        <ele>172</ele>
        <time>2022-05-12T09:44:52Z</time>
      </trkpt>
      <trkpt lat="48.61657" lon="1.92966">
        <ele>172.2</ele>
        <time>2022-05-12T09:45:06Z</time>
      </trkpt>
      <trkpt lat="48.61658" lon="1.92952">
        <ele>172.7</ele>
        <time>2022-05-12T09:45:49Z</time>
      </trkpt>
    </trkseg>
  </trk>
</gpx>